<?xml version="1.0" encoding="UTF-8" standalone="no" ?><gpx xmlns="http://www.topografix.com/GPX/1/1" xmlns:gpxx="http://www.garmin.com/xmlschemas/GpxExtensions/v3" xmlns:wptx1="http://www.garmin.com/xmlschemas/WaypointExtension/v1" xmlns:gpxtpx="http://www.garmin.com/xmlschemas/TrackPointExtension/v1" creator="Dakota 20" version="1.1" xmlns:xsi="http://www.w3.org/2001/XMLSchema-instance" xsi:schemaLocation="http://www.topografix.com/GPX/1/1 http://www.topografix.com/GPX/1/1/gpx.xsd http://www.garmin.com/xmlschemas/GpxExtensions/v3 http://www8.garmin.com/xmlschemas/GpxExtensionsv3.xsd http://www.garmin.com/xmlschemas/WaypointExtension/v1 http://www8.garmin.com/xmlschemas/WaypointExtensionv1.xsd http://www.garmin.com/xmlschemas/TrackPointExtension/v1 http://www.garmin.com/xmlschemas/TrackPointExtensionv1.xsd"><metadata><link href="http://www.garmin.com"><text>Garmin International</text></link><time>2015-02-11T18:02:47Z</time></metadata><trk><name>Current Track: 11 FEB 2015 10:01</name><extensions><gpxx:TrackExtension><gpxx:DisplayColor>Cyan</gpxx:DisplayColor></gpxx:TrackExtension></extensions><trkseg><trkpt lat="51.7859048210" lon="-2.1962500736"><ele>151.54</ele><time>2015-02-11T10:01:16Z</time></trkpt><trkpt lat="51.7859017197" lon="-2.1962487325"><ele>148.18</ele><time>2015-02-11T10:01:25Z</time></trkpt><trkpt lat="51.7859013006" lon="-2.1962486487"><ele>151.54</ele><time>2015-02-11T10:01:26Z</time></trkpt><trkpt lat="51.7859004624" lon="-2.1962474752"><ele>151.06</ele><time>2015-02-11T10:01:44Z</time></trkpt><trkpt lat="51.7859401088" lon="-2.1960823517"><ele>149.62</ele><time>2015-02-11T10:01:59Z</time></trkpt><trkpt lat="51.7859302182" lon="-2.1959618200"><ele>149.62</ele><time>2015-02-11T10:02:11Z</time></trkpt><trkpt lat="51.7858945951" lon="-2.1958209202"><ele>149.62</ele><time>2015-02-11T10:02:32Z</time></trkpt><trkpt lat="51.7857942637" lon="-2.1956730634"><ele>148.66</ele><time>2015-02-11T10:02:50Z</time></trkpt><trkpt lat="51.7858168948" lon="-2.1954893321"><ele>147.70</ele><time>2015-02-11T10:03:08Z</time></trkpt><trkpt lat="51.7858775798" lon="-2.1954635158"><ele>148.18</ele><time>2015-02-11T10:03:12Z</time></trkpt><trkpt lat="51.7859946750" lon="-2.1952899266"><ele>149.62</ele><time>2015-02-11T10:03:31Z</time></trkpt><trkpt lat="51.7860121094" lon="-2.1952339355"><ele>149.62</ele><time>2015-02-11T10:03:37Z</time></trkpt><trkpt lat="51.7861291207" lon="-2.1950858273"><ele>150.58</ele><time>2015-02-11T10:03:57Z</time></trkpt><trkpt lat="51.7862441204" lon="-2.1949756052"><ele>149.62</ele><time>2015-02-11T10:04:14Z</time></trkpt><trkpt lat="51.7862106767" lon="-2.1949667204"><ele>149.62</ele><time>2015-02-11T10:04:33Z</time></trkpt><trkpt lat="51.7861934099" lon="-2.1948375553"><ele>150.10</ele><time>2015-02-11T10:04:47Z</time></trkpt><trkpt lat="51.7862734571" lon="-2.1947648004"><ele>151.06</ele><time>2015-02-11T10:05:05Z</time></trkpt><trkpt lat="51.7864628043" lon="-2.1946190391"><ele>150.58</ele><time>2015-02-11T10:05:21Z</time></trkpt><trkpt lat="51.7865177896" lon="-2.1944941487"><ele>152.99</ele><time>2015-02-11T10:05:35Z</time></trkpt><trkpt lat="51.7865274288" lon="-2.1943582781"><ele>152.51</ele><time>2015-02-11T10:05:49Z</time></trkpt><trkpt lat="51.7866755370" lon="-2.1941669192"><ele>152.99</ele><time>2015-02-11T10:06:04Z</time></trkpt><trkpt lat="51.7867981642" lon="-2.1939587127"><ele>153.47</ele><time>2015-02-11T10:06:17Z</time></trkpt><trkpt lat="51.7868311051" lon="-2.1937510092"><ele>153.95</ele><time>2015-02-11T10:06:33Z</time></trkpt><trkpt lat="51.7868445162" lon="-2.1937298868"><ele>153.95</ele><time>2015-02-11T10:06:35Z</time></trkpt><trkpt lat="51.7868830729" lon="-2.1935371030"><ele>153.47</ele><time>2015-02-11T10:06:51Z</time></trkpt><trkpt lat="51.7869444285" lon="-2.1934701316"><ele>153.95</ele><time>2015-02-11T10:07:06Z</time></trkpt><trkpt lat="51.7869778723" lon="-2.1934871469"><ele>154.91</ele><time>2015-02-11T10:07:24Z</time></trkpt><trkpt lat="51.7870849092" lon="-2.1935770847"><ele>155.87</ele><time>2015-02-11T10:07:43Z</time></trkpt><trkpt lat="51.7873000726" lon="-2.1937336586"><ele>157.31</ele><time>2015-02-11T10:08:04Z</time></trkpt><trkpt lat="51.7874597479" lon="-2.1938176453"><ele>158.27</ele><time>2015-02-11T10:08:21Z</time></trkpt><trkpt lat="51.7875690479" lon="-2.1939526778"><ele>159.72</ele><time>2015-02-11T10:08:40Z</time></trkpt><trkpt lat="51.7877611611" lon="-2.1940540150"><ele>160.68</ele><time>2015-02-11T10:08:57Z</time></trkpt><trkpt lat="51.7878936790" lon="-2.1940419450"><ele>161.64</ele><time>2015-02-11T10:09:12Z</time></trkpt><trkpt lat="51.7879488319" lon="-2.1941478923"><ele>162.12</ele><time>2015-02-11T10:09:31Z</time></trkpt><trkpt lat="51.7881054059" lon="-2.1942306217"><ele>163.08</ele><time>2015-02-11T10:09:46Z</time></trkpt><trkpt lat="51.7883171327" lon="-2.1943634748"><ele>164.04</ele><time>2015-02-11T10:10:06Z</time></trkpt><trkpt lat="51.7884866148" lon="-2.1944533288"><ele>165.48</ele><time>2015-02-11T10:10:24Z</time></trkpt><trkpt lat="51.7886009440" lon="-2.1945441049"><ele>165.48</ele><time>2015-02-11T10:10:40Z</time></trkpt><trkpt lat="51.7887111660" lon="-2.1945930552"><ele>166.93</ele><time>2015-02-11T10:10:58Z</time></trkpt><trkpt lat="51.7888129223" lon="-2.1946958173"><ele>168.37</ele><time>2015-02-11T10:11:15Z</time></trkpt><trkpt lat="51.7888856772" lon="-2.1947762836"><ele>168.85</ele><time>2015-02-11T10:11:29Z</time></trkpt><trkpt lat="51.7890768684" lon="-2.1948580071"><ele>170.29</ele><time>2015-02-11T10:11:46Z</time></trkpt><trkpt lat="51.7891432531" lon="-2.1949285828"><ele>170.77</ele><time>2015-02-11T10:12:03Z</time></trkpt><trkpt lat="51.7891797144" lon="-2.1949317679"><ele>171.73</ele><time>2015-02-11T10:12:15Z</time></trkpt><trkpt lat="51.7893422395" lon="-2.1948993299"><ele>172.21</ele><time>2015-02-11T10:12:32Z</time></trkpt><trkpt lat="51.7894692253" lon="-2.1948330291"><ele>174.14</ele><time>2015-02-11T10:12:46Z</time></trkpt><trkpt lat="51.7896260507" lon="-2.1948179416"><ele>175.10</ele><time>2015-02-11T10:13:04Z</time></trkpt><trkpt lat="51.7896877415" lon="-2.1948102303"><ele>176.06</ele><time>2015-02-11T10:13:20Z</time></trkpt><trkpt lat="51.7898122128" lon="-2.1948062908"><ele>176.06</ele><time>2015-02-11T10:13:35Z</time></trkpt><trkpt lat="51.7899787612" lon="-2.1947781276"><ele>176.54</ele><time>2015-02-11T10:13:51Z</time></trkpt><trkpt lat="51.7901163921" lon="-2.1948484518"><ele>177.50</ele><time>2015-02-11T10:14:05Z</time></trkpt><trkpt lat="51.7902795039" lon="-2.1949207038"><ele>177.50</ele><time>2015-02-11T10:14:20Z</time></trkpt><trkpt lat="51.7904069927" lon="-2.1949854121"><ele>177.98</ele><time>2015-02-11T10:14:33Z</time></trkpt><trkpt lat="51.7905575316" lon="-2.1950693149"><ele>179.42</ele><time>2015-02-11T10:14:49Z</time></trkpt><trkpt lat="51.7907534167" lon="-2.1950647049"><ele>179.90</ele><time>2015-02-11T10:15:09Z</time></trkpt><trkpt lat="51.7908768822" lon="-2.1950611006"><ele>180.87</ele><time>2015-02-11T10:15:24Z</time></trkpt><trkpt lat="51.7909735255" lon="-2.1950358711"><ele>181.35</ele><time>2015-02-11T10:15:40Z</time></trkpt><trkpt lat="51.7911200412" lon="-2.1950813849"><ele>182.79</ele><time>2015-02-11T10:16:01Z</time></trkpt><trkpt lat="51.7912985757" lon="-2.1951144934"><ele>183.27</ele><time>2015-02-11T10:16:18Z</time></trkpt><trkpt lat="51.7915248871" lon="-2.1951087937"><ele>184.71</ele><time>2015-02-11T10:16:35Z</time></trkpt><trkpt lat="51.7916892562" lon="-2.1950867493"><ele>185.67</ele><time>2015-02-11T10:16:53Z</time></trkpt><trkpt lat="51.7919064313" lon="-2.1950289141"><ele>185.67</ele><time>2015-02-11T10:17:07Z</time></trkpt><trkpt lat="51.7919718102" lon="-2.1950136591"><ele>186.15</ele><time>2015-02-11T10:17:22Z</time></trkpt><trkpt lat="51.7920950241" lon="-2.1949438378"><ele>187.11</ele><time>2015-02-11T10:17:38Z</time></trkpt><trkpt lat="51.7922419589" lon="-2.1949147526"><ele>187.59</ele><time>2015-02-11T10:17:53Z</time></trkpt><trkpt lat="51.7923612334" lon="-2.1946606133"><ele>189.04</ele><time>2015-02-11T10:18:09Z</time></trkpt><trkpt lat="51.7924536858" lon="-2.1943946555"><ele>190.48</ele><time>2015-02-11T10:18:25Z</time></trkpt><trkpt lat="51.7925426178" lon="-2.1942265984"><ele>191.44</ele><time>2015-02-11T10:18:35Z</time></trkpt><trkpt lat="51.7925817613" lon="-2.1940701082"><ele>192.40</ele><time>2015-02-11T10:18:48Z</time></trkpt><trkpt lat="51.7925641593" lon="-2.1938687749"><ele>193.36</ele><time>2015-02-11T10:19:02Z</time></trkpt><trkpt lat="51.7926150374" lon="-2.1936948504"><ele>194.80</ele><time>2015-02-11T10:19:19Z</time></trkpt><trkpt lat="51.7927131895" lon="-2.1935842931"><ele>195.77</ele><time>2015-02-11T10:19:34Z</time></trkpt><trkpt lat="51.7928390857" lon="-2.1934459917"><ele>197.69</ele><time>2015-02-11T10:19:48Z</time></trkpt><trkpt lat="51.7929076497" lon="-2.1933489293"><ele>199.13</ele><time>2015-02-11T10:20:04Z</time></trkpt><trkpt lat="51.7929444462" lon="-2.1933201794"><ele>198.65</ele><time>2015-02-11T10:20:26Z</time></trkpt><trkpt lat="51.7930145189" lon="-2.1932237875"><ele>200.09</ele><time>2015-02-11T10:20:41Z</time></trkpt><trkpt lat="51.7931487132" lon="-2.1930340212"><ele>200.09</ele><time>2015-02-11T10:20:54Z</time></trkpt><trkpt lat="51.7932252400" lon="-2.1929289959"><ele>200.09</ele><time>2015-02-11T10:21:09Z</time></trkpt><trkpt lat="51.7932900321" lon="-2.1928444225"><ele>200.57</ele><time>2015-02-11T10:21:27Z</time></trkpt><trkpt lat="51.7933528125" lon="-2.1927845757"><ele>200.09</ele><time>2015-02-11T10:21:59Z</time></trkpt><trkpt lat="51.7934885994" lon="-2.1926994994"><ele>199.61</ele><time>2015-02-11T10:22:11Z</time></trkpt><trkpt lat="51.7936320137" lon="-2.1926150937"><ele>200.09</ele><time>2015-02-11T10:22:29Z</time></trkpt><trkpt lat="51.7937112227" lon="-2.1926015988"><ele>201.05</ele><time>2015-02-11T10:22:46Z</time></trkpt><trkpt lat="51.7938574869" lon="-2.1926673129"><ele>202.01</ele><time>2015-02-11T10:23:04Z</time></trkpt><trkpt lat="51.7940375302" lon="-2.1926953923"><ele>202.98</ele><time>2015-02-11T10:23:22Z</time></trkpt><trkpt lat="51.7941514403" lon="-2.1926499624"><ele>204.42</ele><time>2015-02-11T10:23:41Z</time></trkpt><trkpt lat="51.7942687869" lon="-2.1926409099"><ele>205.86</ele><time>2015-02-11T10:23:56Z</time></trkpt><trkpt lat="51.7943548691" lon="-2.1926751919"><ele>206.34</ele><time>2015-02-11T10:24:12Z</time></trkpt><trkpt lat="51.7945192382" lon="-2.1926508844"><ele>207.30</ele><time>2015-02-11T10:24:28Z</time></trkpt><trkpt lat="51.7946619820" lon="-2.1926642954"><ele>208.74</ele><time>2015-02-11T10:24:44Z</time></trkpt><trkpt lat="51.7947507463" lon="-2.1926782094"><ele>209.70</ele><time>2015-02-11T10:24:58Z</time></trkpt><trkpt lat="51.7948439531" lon="-2.1926772874"><ele>210.19</ele><time>2015-02-11T10:25:09Z</time></trkpt><trkpt lat="51.7949891277" lon="-2.1927186940"><ele>211.15</ele><time>2015-02-11T10:25:23Z</time></trkpt><trkpt lat="51.7951049656" lon="-2.1927048638"><ele>213.07</ele><time>2015-02-11T10:25:37Z</time></trkpt><trkpt lat="51.7952588573" lon="-2.1927132457"><ele>214.51</ele><time>2015-02-11T10:25:51Z</time></trkpt><trkpt lat="51.7954067141" lon="-2.1927527245"><ele>216.43</ele><time>2015-02-11T10:26:06Z</time></trkpt><trkpt lat="51.7955164332" lon="-2.1927410737"><ele>216.91</ele><time>2015-02-11T10:26:21Z</time></trkpt><trkpt lat="51.7955301795" lon="-2.1927516349"><ele>216.91</ele><time>2015-02-11T10:26:28Z</time></trkpt><trkpt lat="51.7956417426" lon="-2.1927974001"><ele>218.36</ele><time>2015-02-11T10:26:42Z</time></trkpt><trkpt lat="51.7956802994" lon="-2.1928230487"><ele>218.84</ele><time>2015-02-11T10:27:02Z</time></trkpt><trkpt lat="51.7957390565" lon="-2.1928248927"><ele>218.36</ele><time>2015-02-11T10:27:10Z</time></trkpt><trkpt lat="51.7957634479" lon="-2.1928272396"><ele>219.32</ele><time>2015-02-11T10:27:12Z</time></trkpt><trkpt lat="51.7959118076" lon="-2.1928610187"><ele>220.28</ele><time>2015-02-11T10:27:27Z</time></trkpt><trkpt lat="51.7959330976" lon="-2.1928732563"><ele>220.28</ele><time>2015-02-11T10:27:29Z</time></trkpt><trkpt lat="51.7959501129" lon="-2.1928757709"><ele>220.76</ele><time>2015-02-11T10:27:31Z</time></trkpt><trkpt lat="51.7960229516" lon="-2.1928655449"><ele>221.72</ele><time>2015-02-11T10:27:45Z</time></trkpt><trkpt lat="51.7960374523" lon="-2.1928724181"><ele>221.24</ele><time>2015-02-11T10:27:52Z</time></trkpt><trkpt lat="51.7960680462" lon="-2.1928671375"><ele>221.72</ele><time>2015-02-11T10:27:55Z</time></trkpt><trkpt lat="51.7960983049" lon="-2.1928715799"><ele>221.72</ele><time>2015-02-11T10:27:58Z</time></trkpt><trkpt lat="51.7962169927" lon="-2.1928683110"><ele>222.68</ele><time>2015-02-11T10:28:13Z</time></trkpt><trkpt lat="51.7962785996" lon="-2.1928940434"><ele>223.16</ele><time>2015-02-11T10:28:21Z</time></trkpt><trkpt lat="51.7964024004" lon="-2.1928672213"><ele>224.61</ele><time>2015-02-11T10:28:36Z</time></trkpt><trkpt lat="51.7964714672" lon="-2.1928334422"><ele>225.57</ele><time>2015-02-11T10:28:50Z</time></trkpt><trkpt lat="51.7965270393" lon="-2.1927916165"><ele>226.05</ele><time>2015-02-11T10:29:04Z</time></trkpt><trkpt lat="51.7965561245" lon="-2.1928018425"><ele>225.57</ele><time>2015-02-11T10:29:19Z</time></trkpt><trkpt lat="51.7965566274" lon="-2.1928054467"><ele>226.05</ele><time>2015-02-11T10:29:32Z</time></trkpt><trkpt lat="51.7965576332" lon="-2.1928134095"><ele>226.05</ele><time>2015-02-11T10:29:48Z</time></trkpt><trkpt lat="51.7965949327" lon="-2.1927647106"><ele>225.57</ele><time>2015-02-11T10:30:01Z</time></trkpt><trkpt lat="51.7967216671" lon="-2.1926877648"><ele>226.05</ele><time>2015-02-11T10:30:16Z</time></trkpt><trkpt lat="51.7968518380" lon="-2.1926804725"><ele>226.53</ele><time>2015-02-11T10:30:31Z</time></trkpt><trkpt lat="51.7969367467" lon="-2.1926356293"><ele>227.01</ele><time>2015-02-11T10:30:44Z</time></trkpt><trkpt lat="51.7969797458" lon="-2.1926152613"><ele>227.01</ele><time>2015-02-11T10:30:50Z</time></trkpt><trkpt lat="51.7971151974" lon="-2.1925506368"><ele>227.01</ele><time>2015-02-11T10:31:04Z</time></trkpt><trkpt lat="51.7971230764" lon="-2.1925459430"><ele>226.53</ele><time>2015-02-11T10:31:05Z</time></trkpt><trkpt lat="51.7971598729" lon="-2.1925239824"><ele>227.01</ele><time>2015-02-11T10:31:08Z</time></trkpt><trkpt lat="51.7972803209" lon="-2.1924617887"><ele>227.49</ele><time>2015-02-11T10:31:21Z</time></trkpt><trkpt lat="51.7973273434" lon="-2.1924309433"><ele>227.49</ele><time>2015-02-11T10:31:33Z</time></trkpt><trkpt lat="51.7974475399" lon="-2.1923708450"><ele>227.49</ele><time>2015-02-11T10:31:45Z</time></trkpt><trkpt lat="51.7974543292" lon="-2.1923689172"><ele>227.49</ele><time>2015-02-11T10:31:46Z</time></trkpt><trkpt lat="51.7975580972" lon="-2.1923197154"><ele>227.49</ele><time>2015-02-11T10:31:56Z</time></trkpt><trkpt lat="51.7976899445" lon="-2.1921786480"><ele>226.53</ele><time>2015-02-11T10:32:13Z</time></trkpt><trkpt lat="51.7977917846" lon="-2.1920445375"><ele>226.05</ele><time>2015-02-11T10:32:28Z</time></trkpt><trkpt lat="51.7978670541" lon="-2.1919452958"><ele>225.57</ele><time>2015-02-11T10:32:41Z</time></trkpt><trkpt lat="51.7979759350" lon="-2.1918543521"><ele>224.61</ele><time>2015-02-11T10:32:56Z</time></trkpt><trkpt lat="51.7980753444" lon="-2.1917895600"><ele>224.12</ele><time>2015-02-11T10:33:08Z</time></trkpt><trkpt lat="51.7981962115" lon="-2.1917293780"><ele>224.12</ele><time>2015-02-11T10:33:20Z</time></trkpt><trkpt lat="51.7982003186" lon="-2.1917334851"><ele>224.12</ele><time>2015-02-11T10:33:37Z</time></trkpt><trkpt lat="51.7982262187" lon="-2.1917500813"><ele>224.12</ele><time>2015-02-11T10:33:50Z</time></trkpt><trkpt lat="51.7983101215" lon="-2.1916964371"><ele>223.64</ele><time>2015-02-11T10:34:03Z</time></trkpt><trkpt lat="51.7984236125" lon="-2.1917289589"><ele>223.64</ele><time>2015-02-11T10:34:18Z</time></trkpt><trkpt lat="51.7985756602" lon="-2.1918701939"><ele>224.12</ele><time>2015-02-11T10:34:34Z</time></trkpt><trkpt lat="51.7986575514" lon="-2.1919879597"><ele>226.05</ele><time>2015-02-11T10:34:54Z</time></trkpt><trkpt lat="51.7987655103" lon="-2.1921812464"><ele>227.01</ele><time>2015-02-11T10:35:11Z</time></trkpt><trkpt lat="51.7988707870" lon="-2.1923066396"><ele>227.01</ele><time>2015-02-11T10:35:28Z</time></trkpt><trkpt lat="51.7989282869" lon="-2.1923705097"><ele>227.97</ele><time>2015-02-11T10:35:43Z</time></trkpt><trkpt lat="51.7990825977" lon="-2.1925011836"><ele>227.97</ele><time>2015-02-11T10:35:59Z</time></trkpt><trkpt lat="51.7991825938" lon="-2.1925679035"><ele>228.93</ele><time>2015-02-11T10:36:16Z</time></trkpt><trkpt lat="51.7992545106" lon="-2.1926440112"><ele>229.41</ele><time>2015-02-11T10:36:31Z</time></trkpt><trkpt lat="51.7993610445" lon="-2.1927173529"><ele>229.89</ele><time>2015-02-11T10:36:45Z</time></trkpt><trkpt lat="51.7995348852" lon="-2.1928371303"><ele>230.85</ele><time>2015-02-11T10:37:01Z</time></trkpt><trkpt lat="51.7996048741" lon="-2.1929224581"><ele>231.81</ele><time>2015-02-11T10:37:14Z</time></trkpt><trkpt lat="51.7998000048" lon="-2.1930060256"><ele>231.33</ele><time>2015-02-11T10:37:30Z</time></trkpt><trkpt lat="51.7999386415" lon="-2.1930250525"><ele>231.81</ele><time>2015-02-11T10:37:45Z</time></trkpt><trkpt lat="51.8001519609" lon="-2.1931088716"><ele>232.78</ele><time>2015-02-11T10:38:00Z</time></trkpt><trkpt lat="51.8001897633" lon="-2.1931124758"><ele>233.74</ele><time>2015-02-11T10:38:14Z</time></trkpt><trkpt lat="51.8002687208" lon="-2.1931697242"><ele>234.22</ele><time>2015-02-11T10:38:28Z</time></trkpt><trkpt lat="51.8003487680" lon="-2.1931710653"><ele>234.70</ele><time>2015-02-11T10:38:41Z</time></trkpt><trkpt lat="51.8005372770" lon="-2.1931699757"><ele>236.62</ele><time>2015-02-11T10:38:55Z</time></trkpt><trkpt lat="51.8006951921" lon="-2.1932165790"><ele>237.10</ele><time>2015-02-11T10:39:08Z</time></trkpt><trkpt lat="51.8009049911" lon="-2.1932224464"><ele>238.54</ele><time>2015-02-11T10:39:23Z</time></trkpt><trkpt lat="51.8010610621" lon="-2.1932120528"><ele>238.54</ele><time>2015-02-11T10:39:38Z</time></trkpt><trkpt lat="51.8011655007" lon="-2.1931960434"><ele>239.02</ele><time>2015-02-11T10:39:54Z</time></trkpt><trkpt lat="51.8012278620" lon="-2.1932351869"><ele>239.51</ele><time>2015-02-11T10:40:12Z</time></trkpt><trkpt lat="51.8012713641" lon="-2.1932319179"><ele>239.02</ele><time>2015-02-11T10:40:31Z</time></trkpt><trkpt lat="51.8013900518" lon="-2.1932207700"><ele>238.54</ele><time>2015-02-11T10:40:44Z</time></trkpt><trkpt lat="51.8014199752" lon="-2.1932163276"><ele>239.02</ele><time>2015-02-11T10:41:01Z</time></trkpt><trkpt lat="51.8014581129" lon="-2.1931868233"><ele>238.54</ele><time>2015-02-11T10:41:30Z</time></trkpt><trkpt lat="51.8014974240" lon="-2.1932020783"><ele>238.54</ele><time>2015-02-11T10:41:44Z</time></trkpt><trkpt lat="51.8015437759" lon="-2.1931750886"><ele>239.02</ele><time>2015-02-11T10:41:47Z</time></trkpt><trkpt lat="51.8017022777" lon="-2.1931188460"><ele>239.02</ele><time>2015-02-11T10:42:00Z</time></trkpt><trkpt lat="51.8018246535" lon="-2.1930950414"><ele>239.51</ele><time>2015-02-11T10:42:14Z</time></trkpt><trkpt lat="51.8018858414" lon="-2.1930755116"><ele>239.99</ele><time>2015-02-11T10:42:26Z</time></trkpt><trkpt lat="51.8018931337" lon="-2.1930736676"><ele>239.99</ele><time>2015-02-11T10:42:27Z</time></trkpt><trkpt lat="51.8019149266" lon="-2.1930734161"><ele>240.47</ele><time>2015-02-11T10:42:29Z</time></trkpt><trkpt lat="51.8020655494" lon="-2.1930685546"><ele>239.99</ele><time>2015-02-11T10:42:42Z</time></trkpt><trkpt lat="51.8020974845" lon="-2.1930899285"><ele>239.51</ele><time>2015-02-11T10:42:58Z</time></trkpt><trkpt lat="51.8021085486" lon="-2.1930905152"><ele>239.51</ele><time>2015-02-11T10:43:23Z</time></trkpt><trkpt lat="51.8021573313" lon="-2.1930815466"><ele>239.51</ele><time>2015-02-11T10:43:30Z</time></trkpt><trkpt lat="51.8023253046" lon="-2.1930517908"><ele>239.51</ele><time>2015-02-11T10:43:43Z</time></trkpt><trkpt lat="51.8024409749" lon="-2.1930535510"><ele>239.51</ele><time>2015-02-11T10:43:54Z</time></trkpt><trkpt lat="51.8024675455" lon="-2.1930623520"><ele>239.02</ele><time>2015-02-11T10:43:56Z</time></trkpt><trkpt lat="51.8025643565" lon="-2.1930753440"><ele>240.47</ele><time>2015-02-11T10:44:05Z</time></trkpt><trkpt lat="51.8027091958" lon="-2.1931037586"><ele>239.99</ele><time>2015-02-11T10:44:20Z</time></trkpt><trkpt lat="51.8027294800" lon="-2.1931111347"><ele>239.99</ele><time>2015-02-11T10:44:22Z</time></trkpt><trkpt lat="51.8027775921" lon="-2.1931346040"><ele>239.99</ele><time>2015-02-11T10:44:38Z</time></trkpt><trkpt lat="51.8027930148" lon="-2.1931838058"><ele>239.99</ele><time>2015-02-11T10:44:54Z</time></trkpt><trkpt lat="51.8027982116" lon="-2.1931884158"><ele>239.51</ele><time>2015-02-11T10:45:13Z</time></trkpt><trkpt lat="51.8028184958" lon="-2.1931729931"><ele>239.99</ele><time>2015-02-11T10:45:30Z</time></trkpt><trkpt lat="51.8028378580" lon="-2.1931455005"><ele>240.47</ele><time>2015-02-11T10:45:51Z</time></trkpt><trkpt lat="51.8028736487" lon="-2.1931709815"><ele>240.47</ele><time>2015-02-11T10:46:03Z</time></trkpt><trkpt lat="51.8029155582" lon="-2.1932007372"><ele>240.47</ele><time>2015-02-11T10:46:07Z</time></trkpt><trkpt lat="51.8030584697" lon="-2.1932585724"><ele>240.47</ele><time>2015-02-11T10:46:20Z</time></trkpt><trkpt lat="51.8031790014" lon="-2.1933356021"><ele>240.47</ele><time>2015-02-11T10:46:33Z</time></trkpt><trkpt lat="51.8032404408" lon="-2.1933419723"><ele>240.95</ele><time>2015-02-11T10:46:39Z</time></trkpt><trkpt lat="51.8033210747" lon="-2.1933623403"><ele>240.47</ele><time>2015-02-11T10:46:47Z</time></trkpt><trkpt lat="51.8034585379" lon="-2.1933889110"><ele>241.43</ele><time>2015-02-11T10:46:59Z</time></trkpt><trkpt lat="51.8035830092" lon="-2.1934169903"><ele>241.43</ele><time>2015-02-11T10:47:13Z</time></trkpt><trkpt lat="51.8036650680" lon="-2.1934026573"><ele>242.39</ele><time>2015-02-11T10:47:24Z</time></trkpt><trkpt lat="51.8037628848" lon="-2.1933456603"><ele>242.39</ele><time>2015-02-11T10:47:37Z</time></trkpt><trkpt lat="51.8038478773" lon="-2.1933214366"><ele>242.87</ele><time>2015-02-11T10:47:47Z</time></trkpt><trkpt lat="51.8039410841" lon="-2.1932945307"><ele>242.87</ele><time>2015-02-11T10:47:55Z</time></trkpt><trkpt lat="51.8040426727" lon="-2.1932356898"><ele>243.35</ele><time>2015-02-11T10:48:07Z</time></trkpt><trkpt lat="51.8041133322" lon="-2.1932490170"><ele>244.31</ele><time>2015-02-11T10:48:20Z</time></trkpt><trkpt lat="51.8041914515" lon="-2.1933006495"><ele>244.79</ele><time>2015-02-11T10:48:33Z</time></trkpt><trkpt lat="51.8042804673" lon="-2.1932547167"><ele>244.79</ele><time>2015-02-11T10:48:50Z</time></trkpt><trkpt lat="51.8044450879" lon="-2.1932063531"><ele>244.79</ele><time>2015-02-11T10:49:03Z</time></trkpt><trkpt lat="51.8045522925" lon="-2.1931501105"><ele>245.27</ele><time>2015-02-11T10:49:15Z</time></trkpt><trkpt lat="51.8045579921" lon="-2.1931439079"><ele>245.27</ele><time>2015-02-11T10:49:16Z</time></trkpt><trkpt lat="51.8045997340" lon="-2.1930770203"><ele>245.75</ele><time>2015-02-11T10:49:29Z</time></trkpt><trkpt lat="51.8046174198" lon="-2.1930797026"><ele>245.27</ele><time>2015-02-11T10:49:45Z</time></trkpt><trkpt lat="51.8046246283" lon="-2.1930734999"><ele>246.23</ele><time>2015-02-11T10:49:59Z</time></trkpt><trkpt lat="51.8046206050" lon="-2.1930515394"><ele>245.75</ele><time>2015-02-11T10:50:15Z</time></trkpt><trkpt lat="51.8046255503" lon="-2.1930386312"><ele>245.75</ele><time>2015-02-11T10:50:32Z</time></trkpt><trkpt lat="51.8046245445" lon="-2.1930299979"><ele>245.75</ele><time>2015-02-11T10:50:57Z</time></trkpt><trkpt lat="51.8046168331" lon="-2.1930244658"><ele>245.75</ele><time>2015-02-11T10:51:23Z</time></trkpt><trkpt lat="51.8046120554" lon="-2.1930172574"><ele>246.23</ele><time>2015-02-11T10:51:46Z</time></trkpt><trkpt lat="51.8046145700" lon="-2.1930139884"><ele>245.75</ele><time>2015-02-11T10:52:16Z</time></trkpt><trkpt lat="51.8046140671" lon="-2.1930099651"><ele>246.23</ele><time>2015-02-11T10:52:36Z</time></trkpt><trkpt lat="51.8046170007" lon="-2.1930062771"><ele>246.23</ele><time>2015-02-11T10:53:02Z</time></trkpt><trkpt lat="51.8046161626" lon="-2.1930043492"><ele>246.23</ele><time>2015-02-11T10:53:23Z</time></trkpt><trkpt lat="51.8046133127" lon="-2.1930011641"><ele>246.72</ele><time>2015-02-11T10:53:46Z</time></trkpt><trkpt lat="51.8046118878" lon="-2.1930003259"><ele>246.72</ele><time>2015-02-11T10:54:15Z</time></trkpt><trkpt lat="51.8046123069" lon="-2.1929995716"><ele>246.23</ele><time>2015-02-11T10:54:44Z</time></trkpt><trkpt lat="51.8046144024" lon="-2.1929970570"><ele>246.72</ele><time>2015-02-11T10:55:04Z</time></trkpt><trkpt lat="51.8046129774" lon="-2.1929976437"><ele>246.72</ele><time>2015-02-11T10:55:25Z</time></trkpt><trkpt lat="51.8046118878" lon="-2.1930016670"><ele>246.72</ele><time>2015-02-11T10:55:46Z</time></trkpt><trkpt lat="51.8046135642" lon="-2.1930253040"><ele>246.72</ele><time>2015-02-11T10:56:09Z</time></trkpt><trkpt lat="51.8046148214" lon="-2.1930337697"><ele>246.72</ele><time>2015-02-11T10:56:36Z</time></trkpt><trkpt lat="51.8046176713" lon="-2.1930206940"><ele>247.20</ele><time>2015-02-11T10:57:02Z</time></trkpt><trkpt lat="51.8046164978" lon="-2.1930127311"><ele>247.20</ele><time>2015-02-11T10:57:33Z</time></trkpt><trkpt lat="51.8046175037" lon="-2.1930086240"><ele>246.72</ele><time>2015-02-11T10:57:56Z</time></trkpt><trkpt lat="51.8046198506" lon="-2.1930063609"><ele>247.20</ele><time>2015-02-11T10:58:23Z</time></trkpt><trkpt lat="51.8046207726" lon="-2.1930205263"><ele>247.68</ele><time>2015-02-11T10:58:45Z</time></trkpt><trkpt lat="51.8046316691" lon="-2.1930236276"><ele>247.68</ele><time>2015-02-11T10:59:03Z</time></trkpt><trkpt lat="51.8046228681" lon="-2.1930245496"><ele>247.68</ele><time>2015-02-11T10:59:15Z</time></trkpt><trkpt lat="51.8046297412" lon="-2.1930519585"><ele>247.68</ele><time>2015-02-11T10:59:45Z</time></trkpt><trkpt lat="51.8046347704" lon="-2.1930585802"><ele>248.64</ele><time>2015-02-11T11:00:00Z</time></trkpt><trkpt lat="51.8046334293" lon="-2.1930589993"><ele>248.16</ele><time>2015-02-11T11:00:15Z</time></trkpt><trkpt lat="51.8046379555" lon="-2.1930826362"><ele>248.16</ele><time>2015-02-11T11:00:27Z</time></trkpt><trkpt lat="51.8046703935" lon="-2.1931253001"><ele>250.08</ele><time>2015-02-11T11:00:35Z</time></trkpt><trkpt lat="51.8047952838" lon="-2.1931230370"><ele>248.64</ele><time>2015-02-11T11:00:46Z</time></trkpt><trkpt lat="51.8048678711" lon="-2.1930574905"><ele>250.08</ele><time>2015-02-11T11:00:52Z</time></trkpt><trkpt lat="51.8049131334" lon="-2.1930230409"><ele>249.60</ele><time>2015-02-11T11:01:10Z</time></trkpt><trkpt lat="51.8049785122" lon="-2.1930515394"><ele>251.04</ele><time>2015-02-11T11:01:18Z</time></trkpt><trkpt lat="51.8050464895" lon="-2.1930170059"><ele>252.00</ele><time>2015-02-11T11:01:25Z</time></trkpt><trkpt lat="51.8050938472" lon="-2.1930155810"><ele>252.48</ele><time>2015-02-11T11:01:29Z</time></trkpt><trkpt lat="51.8052452244" lon="-2.1929653734"><ele>253.93</ele><time>2015-02-11T11:01:43Z</time></trkpt><trkpt lat="51.8052894808" lon="-2.1929403953"><ele>255.37</ele><time>2015-02-11T11:01:48Z</time></trkpt><trkpt lat="51.8053362519" lon="-2.1929194406"><ele>255.85</ele><time>2015-02-11T11:01:52Z</time></trkpt><trkpt lat="51.8053651694" lon="-2.1929034311"><ele>255.85</ele><time>2015-02-11T11:01:55Z</time></trkpt><trkpt lat="51.8054413609" lon="-2.1928424109"><ele>256.81</ele><time>2015-02-11T11:02:02Z</time></trkpt><trkpt lat="51.8055780698" lon="-2.1927606873"><ele>258.73</ele><time>2015-02-11T11:02:14Z</time></trkpt><trkpt lat="51.8056584522" lon="-2.1926751081"><ele>259.21</ele><time>2015-02-11T11:02:23Z</time></trkpt><trkpt lat="51.8056970090" lon="-2.1926374733"><ele>259.21</ele><time>2015-02-11T11:02:27Z</time></trkpt><trkpt lat="51.8058194686" lon="-2.1925454400"><ele>261.14</ele><time>2015-02-11T11:02:40Z</time></trkpt><trkpt lat="51.8059381563" lon="-2.1924924664"><ele>262.10</ele><time>2015-02-11T11:02:53Z</time></trkpt><trkpt lat="51.8059832510" lon="-2.1924846712"><ele>263.54</ele><time>2015-02-11T11:02:59Z</time></trkpt><trkpt lat="51.8060006853" lon="-2.1924980823"><ele>263.54</ele><time>2015-02-11T11:03:01Z</time></trkpt><trkpt lat="51.8060825765" lon="-2.1924998425"><ele>264.98</ele><time>2015-02-11T11:03:10Z</time></trkpt><trkpt lat="51.8061150145" lon="-2.1925042849"><ele>265.94</ele><time>2015-02-11T11:03:14Z</time></trkpt><trkpt lat="51.8061342929" lon="-2.1925124153"><ele>265.94</ele><time>2015-02-11T11:03:16Z</time></trkpt><trkpt lat="51.8061904516" lon="-2.1925282571"><ele>267.38</ele><time>2015-02-11T11:03:29Z</time></trkpt><trkpt lat="51.8062375579" lon="-2.1925660595"><ele>267.86</ele><time>2015-02-11T11:03:40Z</time></trkpt><trkpt lat="51.8063381407" lon="-2.1925181150"><ele>269.31</ele><time>2015-02-11T11:03:54Z</time></trkpt><trkpt lat="51.8063992448" lon="-2.1924850903"><ele>270.27</ele><time>2015-02-11T11:04:07Z</time></trkpt><trkpt lat="51.8063964788" lon="-2.1924825758"><ele>270.75</ele><time>2015-02-11T11:04:26Z</time></trkpt><trkpt lat="51.8064274080" lon="-2.1924633812"><ele>272.19</ele><time>2015-02-11T11:04:30Z</time></trkpt><trkpt lat="51.8064935412" lon="-2.1923879441"><ele>272.67</ele><time>2015-02-11T11:04:40Z</time></trkpt><trkpt lat="51.8065165076" lon="-2.1923109144"><ele>272.19</ele><time>2015-02-11T11:04:47Z</time></trkpt><trkpt lat="51.8065487780" lon="-2.1922801528"><ele>273.15</ele><time>2015-02-11T11:04:51Z</time></trkpt><trkpt lat="51.8065685593" lon="-2.1922430210"><ele>274.11</ele><time>2015-02-11T11:04:54Z</time></trkpt><trkpt lat="51.8066267297" lon="-2.1922265086"><ele>276.04</ele><time>2015-02-11T11:05:00Z</time></trkpt><trkpt lat="51.8066482712" lon="-2.1922120079"><ele>277.48</ele><time>2015-02-11T11:05:03Z</time></trkpt><trkpt lat="51.8066572398" lon="-2.1922161989"><ele>277.96</ele><time>2015-02-11T11:05:04Z</time></trkpt><trkpt lat="51.8066760991" lon="-2.1922272630"><ele>278.44</ele><time>2015-02-11T11:05:07Z</time></trkpt><trkpt lat="51.8067045137" lon="-2.1922420152"><ele>279.40</ele><time>2015-02-11T11:05:15Z</time></trkpt><trkpt lat="51.8067412265" lon="-2.1922638081"><ele>280.36</ele><time>2015-02-11T11:05:20Z</time></trkpt><trkpt lat="51.8068892509" lon="-2.1923113335"><ele>282.28</ele><time>2015-02-11T11:05:34Z</time></trkpt><trkpt lat="51.8070326652" lon="-2.1923581883"><ele>281.80</ele><time>2015-02-11T11:05:49Z</time></trkpt><trkpt lat="51.8071511015" lon="-2.1923872735"><ele>283.25</ele><time>2015-02-11T11:06:03Z</time></trkpt><trkpt lat="51.8072360102" lon="-2.1924289316"><ele>283.73</ele><time>2015-02-11T11:06:12Z</time></trkpt><trkpt lat="51.8073422927" lon="-2.1924782172"><ele>284.69</ele><time>2015-02-11T11:06:27Z</time></trkpt><trkpt lat="51.8073464837" lon="-2.1924895328"><ele>283.25</ele><time>2015-02-11T11:06:41Z</time></trkpt><trkpt lat="51.8073515128" lon="-2.1924881916"><ele>284.21</ele><time>2015-02-11T11:06:59Z</time></trkpt><trkpt lat="51.8073526025" lon="-2.1924879402"><ele>283.73</ele><time>2015-02-11T11:07:25Z</time></trkpt><trkpt lat="51.8073487468" lon="-2.1924901195"><ele>284.21</ele><time>2015-02-11T11:07:53Z</time></trkpt><trkpt lat="51.8073509261" lon="-2.1924975794"><ele>284.69</ele><time>2015-02-11T11:08:22Z</time></trkpt><trkpt lat="51.8073511776" lon="-2.1925001778"><ele>284.69</ele><time>2015-02-11T11:08:41Z</time></trkpt><trkpt lat="51.8073512614" lon="-2.1925024409"><ele>284.69</ele><time>2015-02-11T11:09:13Z</time></trkpt><trkpt lat="51.8073528539" lon="-2.1925005130"><ele>284.21</ele><time>2015-02-11T11:09:34Z</time></trkpt><trkpt lat="51.8073531054" lon="-2.1925040334"><ele>284.69</ele><time>2015-02-11T11:10:00Z</time></trkpt><trkpt lat="51.8074118625" lon="-2.1925420873"><ele>283.73</ele><time>2015-02-11T11:10:17Z</time></trkpt><trkpt lat="51.8074706197" lon="-2.1925616171"><ele>282.28</ele><time>2015-02-11T11:10:32Z</time></trkpt><trkpt lat="51.8074945919" lon="-2.1924966574"><ele>281.80</ele><time>2015-02-11T11:10:44Z</time></trkpt><trkpt lat="51.8074940052" lon="-2.1924310271"><ele>282.28</ele><time>2015-02-11T11:11:00Z</time></trkpt><trkpt lat="51.8075085059" lon="-2.1922823321"><ele>280.36</ele><time>2015-02-11T11:11:15Z</time></trkpt><trkpt lat="51.8074964359" lon="-2.1922724415"><ele>280.84</ele><time>2015-02-11T11:11:27Z</time></trkpt><trkpt lat="51.8074933346" lon="-2.1921967529"><ele>280.84</ele><time>2015-02-11T11:11:54Z</time></trkpt><trkpt lat="51.8075010460" lon="-2.1920608822"><ele>280.36</ele><time>2015-02-11T11:12:06Z</time></trkpt><trkpt lat="51.8075038120" lon="-2.1919932403"><ele>279.40</ele><time>2015-02-11T11:12:13Z</time></trkpt><trkpt lat="51.8075291254" lon="-2.1918719541"><ele>278.44</ele><time>2015-02-11T11:12:25Z</time></trkpt><trkpt lat="51.8075810932" lon="-2.1918071620"><ele>277.96</ele><time>2015-02-11T11:12:38Z</time></trkpt><trkpt lat="51.8075942528" lon="-2.1917991154"><ele>277.96</ele><time>2015-02-11T11:12:42Z</time></trkpt><trkpt lat="51.8076557759" lon="-2.1917872969"><ele>277.00</ele><time>2015-02-11T11:12:49Z</time></trkpt><trkpt lat="51.8077764753" lon="-2.1918551903"><ele>274.11</ele><time>2015-02-11T11:13:02Z</time></trkpt><trkpt lat="51.8078511581" lon="-2.1918867063"><ele>273.15</ele><time>2015-02-11T11:13:15Z</time></trkpt><trkpt lat="51.8079343904" lon="-2.1917765681"><ele>272.19</ele><time>2015-02-11T11:13:29Z</time></trkpt><trkpt lat="51.8079588655" lon="-2.1917387657"><ele>270.75</ele><time>2015-02-11T11:13:32Z</time></trkpt><trkpt lat="51.8079658225" lon="-2.1917253546"><ele>271.23</ele><time>2015-02-11T11:13:33Z</time></trkpt><trkpt lat="51.8080070615" lon="-2.1916678548"><ele>270.75</ele><time>2015-02-11T11:13:39Z</time></trkpt><trkpt lat="51.8080835044" lon="-2.1915044915"><ele>269.79</ele><time>2015-02-11T11:13:53Z</time></trkpt><trkpt lat="51.8081293534" lon="-2.1913227718"><ele>267.38</ele><time>2015-02-11T11:14:07Z</time></trkpt><trkpt lat="51.8081763759" lon="-2.1911730710"><ele>265.94</ele><time>2015-02-11T11:14:20Z</time></trkpt><trkpt lat="51.8081983365" lon="-2.1910937782"><ele>266.42</ele><time>2015-02-11T11:14:26Z</time></trkpt><trkpt lat="51.8082315288" lon="-2.1909351926"><ele>265.46</ele><time>2015-02-11T11:14:37Z</time></trkpt><trkpt lat="51.8082859274" lon="-2.1907292493"><ele>265.46</ele><time>2015-02-11T11:14:49Z</time></trkpt><trkpt lat="51.8083123304" lon="-2.1905052010"><ele>265.46</ele><time>2015-02-11T11:15:03Z</time></trkpt><trkpt lat="51.8083105702" lon="-2.1904130839"><ele>265.46</ele><time>2015-02-11T11:15:09Z</time></trkpt><trkpt lat="51.8083047867" lon="-2.1902897861"><ele>265.46</ele><time>2015-02-11T11:15:17Z</time></trkpt><trkpt lat="51.8082757015" lon="-2.1900672466"><ele>266.42</ele><time>2015-02-11T11:15:31Z</time></trkpt><trkpt lat="51.8082803115" lon="-2.1899697650"><ele>265.94</ele><time>2015-02-11T11:15:37Z</time></trkpt><trkpt lat="51.8082820717" lon="-2.1899250895"><ele>266.42</ele><time>2015-02-11T11:15:40Z</time></trkpt><trkpt lat="51.8083120789" lon="-2.1897229180"><ele>266.90</ele><time>2015-02-11T11:15:56Z</time></trkpt><trkpt lat="51.8083359674" lon="-2.1896619815"><ele>267.38</ele><time>2015-02-11T11:16:09Z</time></trkpt><trkpt lat="51.8083566707" lon="-2.1895847842"><ele>267.86</ele><time>2015-02-11T11:16:17Z</time></trkpt><trkpt lat="51.8083423376" lon="-2.1894326527"><ele>268.83</ele><time>2015-02-11T11:16:27Z</time></trkpt><trkpt lat="51.8083292618" lon="-2.1893382724"><ele>268.83</ele><time>2015-02-11T11:16:39Z</time></trkpt><trkpt lat="51.8083289266" lon="-2.1893094387"><ele>268.83</ele><time>2015-02-11T11:17:02Z</time></trkpt><trkpt lat="51.8083468638" lon="-2.1891608275"><ele>268.83</ele><time>2015-02-11T11:17:15Z</time></trkpt><trkpt lat="51.8084152602" lon="-2.1889802814"><ele>267.86</ele><time>2015-02-11T11:17:33Z</time></trkpt><trkpt lat="51.8084710836" lon="-2.1888327599"><ele>264.98</ele><time>2015-02-11T11:17:49Z</time></trkpt><trkpt lat="51.8085420784" lon="-2.1886730008"><ele>263.54</ele><time>2015-02-11T11:18:02Z</time></trkpt><trkpt lat="51.8085984886" lon="-2.1885992400"><ele>262.58</ele><time>2015-02-11T11:18:13Z</time></trkpt><trkpt lat="51.8086317647" lon="-2.1885875892"><ele>264.02</ele><time>2015-02-11T11:18:27Z</time></trkpt><trkpt lat="51.8086516298" lon="-2.1884689014"><ele>263.06</ele><time>2015-02-11T11:18:36Z</time></trkpt><trkpt lat="51.8086771108" lon="-2.1883732639"><ele>262.58</ele><time>2015-02-11T11:18:43Z</time></trkpt><trkpt lat="51.8087180983" lon="-2.1882813983"><ele>262.58</ele><time>2015-02-11T11:18:47Z</time></trkpt><trkpt lat="51.8087835610" lon="-2.1881185379"><ele>261.62</ele><time>2015-02-11T11:18:57Z</time></trkpt><trkpt lat="51.8088870775" lon="-2.1879294422"><ele>261.62</ele><time>2015-02-11T11:19:12Z</time></trkpt><trkpt lat="51.8088920228" lon="-2.1879148576"><ele>261.62</ele><time>2015-02-11T11:19:13Z</time></trkpt><trkpt lat="51.8090063520" lon="-2.1877389215"><ele>259.69</ele><time>2015-02-11T11:19:29Z</time></trkpt><trkpt lat="51.8090754189" lon="-2.1875882149"><ele>259.21</ele><time>2015-02-11T11:19:41Z</time></trkpt><trkpt lat="51.8091430608" lon="-2.1873747278"><ele>258.25</ele><time>2015-02-11T11:19:55Z</time></trkpt><trkpt lat="51.8092112895" lon="-2.1872114483"><ele>257.77</ele><time>2015-02-11T11:20:10Z</time></trkpt><trkpt lat="51.8092343397" lon="-2.1871443931"><ele>257.29</ele><time>2015-02-11T11:20:15Z</time></trkpt><trkpt lat="51.8092841282" lon="-2.1870378591"><ele>256.81</ele><time>2015-02-11T11:20:23Z</time></trkpt><trkpt lat="51.8093699589" lon="-2.1868522838"><ele>256.81</ele><time>2015-02-11T11:20:37Z</time></trkpt><trkpt lat="51.8093906622" lon="-2.1867988911"><ele>256.81</ele><time>2015-02-11T11:20:42Z</time></trkpt><trkpt lat="51.8094577175" lon="-2.1866065264"><ele>254.89</ele><time>2015-02-11T11:20:57Z</time></trkpt><trkpt lat="51.8095308915" lon="-2.1864589211"><ele>253.93</ele><time>2015-02-11T11:21:11Z</time></trkpt><trkpt lat="51.8095487449" lon="-2.1863879263"><ele>253.44</ele><time>2015-02-11T11:21:26Z</time></trkpt><trkpt lat="51.8095885590" lon="-2.1862811409"><ele>253.44</ele><time>2015-02-11T11:21:33Z</time></trkpt><trkpt lat="51.8096808437" lon="-2.1860818192"><ele>252.00</ele><time>2015-02-11T11:21:48Z</time></trkpt><trkpt lat="51.8097579572" lon="-2.1859064698"><ele>252.96</ele><time>2015-02-11T11:22:01Z</time></trkpt><trkpt lat="51.8098357413" lon="-2.1857497282"><ele>252.48</ele><time>2015-02-11T11:22:15Z</time></trkpt><trkpt lat="51.8099010363" lon="-2.1855759714"><ele>252.00</ele><time>2015-02-11T11:22:30Z</time></trkpt><trkpt lat="51.8099681754" lon="-2.1854473930"><ele>252.96</ele><time>2015-02-11T11:22:43Z</time></trkpt><trkpt lat="51.8099914771" lon="-2.1854146197"><ele>252.96</ele><time>2015-02-11T11:22:47Z</time></trkpt><trkpt lat="51.8100370746" lon="-2.1853278670"><ele>253.93</ele><time>2015-02-11T11:23:01Z</time></trkpt><trkpt lat="51.8100452051" lon="-2.1853080858"><ele>252.48</ele><time>2015-02-11T11:23:07Z</time></trkpt><trkpt lat="51.8100518268" lon="-2.1852875501"><ele>253.93</ele><time>2015-02-11T11:23:09Z</time></trkpt><trkpt lat="51.8101183791" lon="-2.1851476561"><ele>254.41</ele><time>2015-02-11T11:23:25Z</time></trkpt><trkpt lat="51.8102029525" lon="-2.1849728934"><ele>253.44</ele><time>2015-02-11T11:23:37Z</time></trkpt><trkpt lat="51.8102779705" lon="-2.1847811155"><ele>253.44</ele><time>2015-02-11T11:23:50Z</time></trkpt><trkpt lat="51.8102874421" lon="-2.1846859809"><ele>252.96</ele><time>2015-02-11T11:23:58Z</time></trkpt><trkpt lat="51.8103308603" lon="-2.1844744217"><ele>251.52</ele><time>2015-02-11T11:24:12Z</time></trkpt><trkpt lat="51.8103519827" lon="-2.1843619365"><ele>251.04</ele><time>2015-02-11T11:24:23Z</time></trkpt><trkpt lat="51.8103941437" lon="-2.1842658799"><ele>250.08</ele><time>2015-02-11T11:24:32Z</time></trkpt><trkpt lat="51.8104622886" lon="-2.1841233037"><ele>249.60</ele><time>2015-02-11T11:24:45Z</time></trkpt><trkpt lat="51.8105296791" lon="-2.1839927137"><ele>247.68</ele><time>2015-02-11T11:24:59Z</time></trkpt><trkpt lat="51.8106034398" lon="-2.1839127503"><ele>247.20</ele><time>2015-02-11T11:25:13Z</time></trkpt><trkpt lat="51.8107434176" lon="-2.1837205533"><ele>245.75</ele><time>2015-02-11T11:25:28Z</time></trkpt><trkpt lat="51.8108302541" lon="-2.1836179588"><ele>246.23</ele><time>2015-02-11T11:25:37Z</time></trkpt><trkpt lat="51.8109397218" lon="-2.1834717784"><ele>244.79</ele><time>2015-02-11T11:25:51Z</time></trkpt><trkpt lat="51.8109909352" lon="-2.1833818406"><ele>244.79</ele><time>2015-02-11T11:25:59Z</time></trkpt><trkpt lat="51.8110682163" lon="-2.1832179744"><ele>244.79</ele><time>2015-02-11T11:26:14Z</time></trkpt><trkpt lat="51.8110631872" lon="-2.1832193155"><ele>245.27</ele><time>2015-02-11T11:26:21Z</time></trkpt><trkpt lat="51.8110371195" lon="-2.1832127776"><ele>245.27</ele><time>2015-02-11T11:26:25Z</time></trkpt><trkpt lat="51.8110109679" lon="-2.1832069941"><ele>245.27</ele><time>2015-02-11T11:26:39Z</time></trkpt><trkpt lat="51.8109698966" lon="-2.1831747238"><ele>245.27</ele><time>2015-02-11T11:26:46Z</time></trkpt><trkpt lat="51.8108482752" lon="-2.1831523441"><ele>246.23</ele><time>2015-02-11T11:27:03Z</time></trkpt><trkpt lat="51.8108110595" lon="-2.1830370929"><ele>244.31</ele><time>2015-02-11T11:27:17Z</time></trkpt><trkpt lat="51.8108036835" lon="-2.1830236819"><ele>243.83</ele><time>2015-02-11T11:27:20Z</time></trkpt><trkpt lat="51.8107497878" lon="-2.1828883979"><ele>244.31</ele><time>2015-02-11T11:27:34Z</time></trkpt><trkpt lat="51.8106943835" lon="-2.1828810219"><ele>243.83</ele><time>2015-02-11T11:27:53Z</time></trkpt><trkpt lat="51.8106495403" lon="-2.1829012223"><ele>244.31</ele><time>2015-02-11T11:28:01Z</time></trkpt><trkpt lat="51.8106191140" lon="-2.1829355042"><ele>244.79</ele><time>2015-02-11T11:28:12Z</time></trkpt><trkpt lat="51.8105149269" lon="-2.1830250230"><ele>246.72</ele><time>2015-02-11T11:28:24Z</time></trkpt><trkpt lat="51.8104072195" lon="-2.1831401065"><ele>247.20</ele><time>2015-02-11T11:28:38Z</time></trkpt><trkpt lat="51.8103953172" lon="-2.1831530984"><ele>248.16</ele><time>2015-02-11T11:28:40Z</time></trkpt><trkpt lat="51.8103805650" lon="-2.1831757296"><ele>248.16</ele><time>2015-02-11T11:28:42Z</time></trkpt><trkpt lat="51.8102835026" lon="-2.1833400149"><ele>250.08</ele><time>2015-02-11T11:28:56Z</time></trkpt><trkpt lat="51.8102649786" lon="-2.1833956707"><ele>250.08</ele><time>2015-02-11T11:29:00Z</time></trkpt><trkpt lat="51.8102045450" lon="-2.1834693477"><ele>250.08</ele><time>2015-02-11T11:29:08Z</time></trkpt><trkpt lat="51.8101768848" lon="-2.1835321281"><ele>251.04</ele><time>2015-02-11T11:29:22Z</time></trkpt><trkpt lat="51.8101645634" lon="-2.1835659072"><ele>250.56</ele><time>2015-02-11T11:29:25Z</time></trkpt><trkpt lat="51.8101524934" lon="-2.1835958306"><ele>249.60</ele><time>2015-02-11T11:29:30Z</time></trkpt><trkpt lat="51.8100897130" lon="-2.1837360598"><ele>251.04</ele><time>2015-02-11T11:29:43Z</time></trkpt><trkpt lat="51.8100151140" lon="-2.1839016024"><ele>251.52</ele><time>2015-02-11T11:29:57Z</time></trkpt><trkpt lat="51.8099666666" lon="-2.1840338688"><ele>251.04</ele><time>2015-02-11T11:30:06Z</time></trkpt><trkpt lat="51.8098945823" lon="-2.1841774508"><ele>251.52</ele><time>2015-02-11T11:30:20Z</time></trkpt><trkpt lat="51.8098526727" lon="-2.1842492837"><ele>251.04</ele><time>2015-02-11T11:30:33Z</time></trkpt><trkpt lat="51.8097649142" lon="-2.1843959671"><ele>251.52</ele><time>2015-02-11T11:30:47Z</time></trkpt><trkpt lat="51.8097142875" lon="-2.1844669618"><ele>251.04</ele><time>2015-02-11T11:30:53Z</time></trkpt><trkpt lat="51.8096064124" lon="-2.1846476756"><ele>251.04</ele><time>2015-02-11T11:31:08Z</time></trkpt><trkpt lat="51.8095584679" lon="-2.1847629268"><ele>250.56</ele><time>2015-02-11T11:31:21Z</time></trkpt><trkpt lat="51.8094683625" lon="-2.1849195845"><ele>251.52</ele><time>2015-02-11T11:31:33Z</time></trkpt><trkpt lat="51.8093910813" lon="-2.1850990411"><ele>251.04</ele><time>2015-02-11T11:31:47Z</time></trkpt><trkpt lat="51.8093560450" lon="-2.1852079220"><ele>252.00</ele><time>2015-02-11T11:31:57Z</time></trkpt><trkpt lat="51.8092559651" lon="-2.1853809245"><ele>252.48</ele><time>2015-02-11T11:32:13Z</time></trkpt><trkpt lat="51.8091554660" lon="-2.1855366603"><ele>251.52</ele><time>2015-02-11T11:32:27Z</time></trkpt><trkpt lat="51.8090568110" lon="-2.1856739558"><ele>252.96</ele><time>2015-02-11T11:32:40Z</time></trkpt><trkpt lat="51.8089739140" lon="-2.1858442761"><ele>252.48</ele><time>2015-02-11T11:32:54Z</time></trkpt><trkpt lat="51.8088942859" lon="-2.1860082261"><ele>252.96</ele><time>2015-02-11T11:33:08Z</time></trkpt><trkpt lat="51.8088035937" lon="-2.1861389000"><ele>252.96</ele><time>2015-02-11T11:33:21Z</time></trkpt><trkpt lat="51.8087080400" lon="-2.1863135789"><ele>253.44</ele><time>2015-02-11T11:33:33Z</time></trkpt><trkpt lat="51.8086930364" lon="-2.1863428317"><ele>253.44</ele><time>2015-02-11T11:33:35Z</time></trkpt><trkpt lat="51.8085556570" lon="-2.1865501162"><ele>253.93</ele><time>2015-02-11T11:33:51Z</time></trkpt><trkpt lat="51.8084712513" lon="-2.1867074445"><ele>253.93</ele><time>2015-02-11T11:34:03Z</time></trkpt><trkpt lat="51.8083509710" lon="-2.1869084425"><ele>254.89</ele><time>2015-02-11T11:34:18Z</time></trkpt><trkpt lat="51.8082396593" lon="-2.1870941855"><ele>254.89</ele><time>2015-02-11T11:34:31Z</time></trkpt><trkpt lat="51.8082313612" lon="-2.1871043276"><ele>254.89</ele><time>2015-02-11T11:34:32Z</time></trkpt><trkpt lat="51.8081140984" lon="-2.1872759890"><ele>255.85</ele><time>2015-02-11T11:34:47Z</time></trkpt><trkpt lat="51.8080077320" lon="-2.1874613129"><ele>255.85</ele><time>2015-02-11T11:35:02Z</time></trkpt><trkpt lat="51.8079342227" lon="-2.1875729598"><ele>255.85</ele><time>2015-02-11T11:35:11Z</time></trkpt><trkpt lat="51.8078318797" lon="-2.1877607144"><ele>256.33</ele><time>2015-02-11T11:35:26Z</time></trkpt><trkpt lat="51.8077490665" lon="-2.1879095770"><ele>256.33</ele><time>2015-02-11T11:35:39Z</time></trkpt><trkpt lat="51.8076419458" lon="-2.1880787238"><ele>256.81</ele><time>2015-02-11T11:35:55Z</time></trkpt><trkpt lat="51.8075810932" lon="-2.1881868504"><ele>257.29</ele><time>2015-02-11T11:36:03Z</time></trkpt><trkpt lat="51.8075692747" lon="-2.1882326994"><ele>257.29</ele><time>2015-02-11T11:36:06Z</time></trkpt><trkpt lat="51.8075349927" lon="-2.1882870141"><ele>256.81</ele><time>2015-02-11T11:36:11Z</time></trkpt><trkpt lat="51.8075206596" lon="-2.1883076336"><ele>257.77</ele><time>2015-02-11T11:36:13Z</time></trkpt><trkpt lat="51.8074166402" lon="-2.1884889342"><ele>256.81</ele><time>2015-02-11T11:36:29Z</time></trkpt><trkpt lat="51.8073141295" lon="-2.1886199433"><ele>256.81</ele><time>2015-02-11T11:36:42Z</time></trkpt><trkpt lat="51.8073030654" lon="-2.1886465978"><ele>257.29</ele><time>2015-02-11T11:36:44Z</time></trkpt><trkpt lat="51.8072418775" lon="-2.1887494437"><ele>257.29</ele><time>2015-02-11T11:36:54Z</time></trkpt><trkpt lat="51.8071916699" lon="-2.1888372023"><ele>257.77</ele><time>2015-02-11T11:37:01Z</time></trkpt><trkpt lat="51.8071496766" lon="-2.1889025811"><ele>257.29</ele><time>2015-02-11T11:37:06Z</time></trkpt><trkpt lat="51.8070889078" lon="-2.1890307404"><ele>258.25</ele><time>2015-02-11T11:37:16Z</time></trkpt><trkpt lat="51.8070462439" lon="-2.1891036630"><ele>257.77</ele><time>2015-02-11T11:37:22Z</time></trkpt><trkpt lat="51.8069388717" lon="-2.1892474126"><ele>258.25</ele><time>2015-02-11T11:37:36Z</time></trkpt><trkpt lat="51.8068983033" lon="-2.1893197484"><ele>258.25</ele><time>2015-02-11T11:37:42Z</time></trkpt><trkpt lat="51.8068037555" lon="-2.1894831117"><ele>259.21</ele><time>2015-02-11T11:37:55Z</time></trkpt><trkpt lat="51.8067711499" lon="-2.1895466466"><ele>259.21</ele><time>2015-02-11T11:38:05Z</time></trkpt><trkpt lat="51.8066926114" lon="-2.1896952577"><ele>259.69</ele><time>2015-02-11T11:38:16Z</time></trkpt><trkpt lat="51.8066225387" lon="-2.1898229141"><ele>260.65</ele><time>2015-02-11T11:38:28Z</time></trkpt><trkpt lat="51.8066161685" lon="-2.1898333076"><ele>261.14</ele><time>2015-02-11T11:38:29Z</time></trkpt><trkpt lat="51.8065586686" lon="-2.1899126004"><ele>260.65</ele><time>2015-02-11T11:38:41Z</time></trkpt><trkpt lat="51.8065014202" lon="-2.1900421847"><ele>262.10</ele><time>2015-02-11T11:38:52Z</time></trkpt><trkpt lat="51.8064869195" lon="-2.1900642291"><ele>261.62</ele><time>2015-02-11T11:38:54Z</time></trkpt><trkpt lat="51.8063957244" lon="-2.1902105771"><ele>261.62</ele><time>2015-02-11T11:39:06Z</time></trkpt><trkpt lat="51.8063141685" lon="-2.1903456096"><ele>262.58</ele><time>2015-02-11T11:39:17Z</time></trkpt><trkpt lat="51.8062969856" lon="-2.1903736889"><ele>262.58</ele><time>2015-02-11T11:39:19Z</time></trkpt><trkpt lat="51.8062155135" lon="-2.1905727591"><ele>263.06</ele><time>2015-02-11T11:39:34Z</time></trkpt><trkpt lat="51.8061483745" lon="-2.1906772815"><ele>263.06</ele><time>2015-02-11T11:39:42Z</time></trkpt><trkpt lat="51.8061011843" lon="-2.1907496173"><ele>263.06</ele><time>2015-02-11T11:39:49Z</time></trkpt><trkpt lat="51.8060363084" lon="-2.1908047702"><ele>263.06</ele><time>2015-02-11T11:40:02Z</time></trkpt><trkpt lat="51.8060296029" lon="-2.1908263117"><ele>263.06</ele><time>2015-02-11T11:40:09Z</time></trkpt><trkpt lat="51.8060071394" lon="-2.1908605937"><ele>263.06</ele><time>2015-02-11T11:40:12Z</time></trkpt><trkpt lat="51.8059719354" lon="-2.1909149084"><ele>264.02</ele><time>2015-02-11T11:40:17Z</time></trkpt><trkpt lat="51.8059626315" lon="-2.1909365337"><ele>263.54</ele><time>2015-02-11T11:40:19Z</time></trkpt><trkpt lat="51.8058969174" lon="-2.1910278965"><ele>263.54</ele><time>2015-02-11T11:40:28Z</time></trkpt><trkpt lat="51.8058705982" lon="-2.1910712309"><ele>263.06</ele><time>2015-02-11T11:40:31Z</time></trkpt><trkpt lat="51.8057768885" lon="-2.1912256256"><ele>262.10</ele><time>2015-02-11T11:40:44Z</time></trkpt><trkpt lat="51.8057003617" lon="-2.1913304832"><ele>261.14</ele><time>2015-02-11T11:40:54Z</time></trkpt><trkpt lat="51.8055547681" lon="-2.1915388573"><ele>259.21</ele><time>2015-02-11T11:41:10Z</time></trkpt><trkpt lat="51.8054564483" lon="-2.1916753985"><ele>258.25</ele><time>2015-02-11T11:41:23Z</time></trkpt><trkpt lat="51.8053572904" lon="-2.1918127779"><ele>257.29</ele><time>2015-02-11T11:41:37Z</time></trkpt><trkpt lat="51.8053150456" lon="-2.1918617282"><ele>255.85</ele><time>2015-02-11T11:41:43Z</time></trkpt><trkpt lat="51.8053006288" lon="-2.1918872930"><ele>255.37</ele><time>2015-02-11T11:41:45Z</time></trkpt><trkpt lat="51.8051838689" lon="-2.1920348145"><ele>253.93</ele><time>2015-02-11T11:42:00Z</time></trkpt><trkpt lat="51.8050702102" lon="-2.1921966691"><ele>252.48</ele><time>2015-02-11T11:42:15Z</time></trkpt><trkpt lat="51.8050007243" lon="-2.1923261695"><ele>251.52</ele><time>2015-02-11T11:42:29Z</time></trkpt><trkpt lat="51.8049366027" lon="-2.1923912130"><ele>251.52</ele><time>2015-02-11T11:42:36Z</time></trkpt><trkpt lat="51.8048283085" lon="-2.1925562527"><ele>250.56</ele><time>2015-02-11T11:42:51Z</time></trkpt><trkpt lat="51.8048058450" lon="-2.1925939713"><ele>250.08</ele><time>2015-02-11T11:42:55Z</time></trkpt><trkpt lat="51.8047905900" lon="-2.1926151775"><ele>250.08</ele><time>2015-02-11T11:42:57Z</time></trkpt><trkpt lat="51.8047587387" lon="-2.1926502977"><ele>250.08</ele><time>2015-02-11T11:43:01Z</time></trkpt><trkpt lat="51.8046401348" lon="-2.1928417403"><ele>249.60</ele><time>2015-02-11T11:43:17Z</time></trkpt><trkpt lat="51.8045584112" lon="-2.1929802094"><ele>248.64</ele><time>2015-02-11T11:43:30Z</time></trkpt><trkpt lat="51.8044490274" lon="-2.1931133140"><ele>247.68</ele><time>2015-02-11T11:43:45Z</time></trkpt><trkpt lat="51.8044049386" lon="-2.1931353584"><ele>248.16</ele><time>2015-02-11T11:43:50Z</time></trkpt><trkpt lat="51.8043680582" lon="-2.1932005696"><ele>248.16</ele><time>2015-02-11T11:43:55Z</time></trkpt><trkpt lat="51.8042802159" lon="-2.1932218596"><ele>247.68</ele><time>2015-02-11T11:44:04Z</time></trkpt><trkpt lat="51.8041857518" lon="-2.1933083609"><ele>247.68</ele><time>2015-02-11T11:44:16Z</time></trkpt><trkpt lat="51.8041507155" lon="-2.1933309920"><ele>247.20</ele><time>2015-02-11T11:44:19Z</time></trkpt><trkpt lat="51.8041199539" lon="-2.1933500189"><ele>248.64</ele><time>2015-02-11T11:44:22Z</time></trkpt><trkpt lat="51.8040955625" lon="-2.1933712251"><ele>248.16</ele><time>2015-02-11T11:44:25Z</time></trkpt><trkpt lat="51.8040743563" lon="-2.1933826245"><ele>247.68</ele><time>2015-02-11T11:44:27Z</time></trkpt><trkpt lat="51.8040078878" lon="-2.1934357658"><ele>247.20</ele><time>2015-02-11T11:44:36Z</time></trkpt><trkpt lat="51.8039863463" lon="-2.1934836265"><ele>247.68</ele><time>2015-02-11T11:44:51Z</time></trkpt><trkpt lat="51.8039510585" lon="-2.1934999712"><ele>246.72</ele><time>2015-02-11T11:44:59Z</time></trkpt><trkpt lat="51.8038166128" lon="-2.1934397053"><ele>246.23</ele><time>2015-02-11T11:45:13Z</time></trkpt><trkpt lat="51.8037064746" lon="-2.1933887433"><ele>245.27</ele><time>2015-02-11T11:45:24Z</time></trkpt><trkpt lat="51.8036372401" lon="-2.1933212690"><ele>244.79</ele><time>2015-02-11T11:45:32Z</time></trkpt><trkpt lat="51.8035486434" lon="-2.1931935288"><ele>242.87</ele><time>2015-02-11T11:45:45Z</time></trkpt><trkpt lat="51.8035303708" lon="-2.1930771042"><ele>241.91</ele><time>2015-02-11T11:45:59Z</time></trkpt><trkpt lat="51.8035652395" lon="-2.1929830592"><ele>240.95</ele><time>2015-02-11T11:46:12Z</time></trkpt><trkpt lat="51.8035665806" lon="-2.1929935366"><ele>240.47</ele><time>2015-02-11T11:46:36Z</time></trkpt><trkpt lat="51.8036098313" lon="-2.1928960551"><ele>239.51</ele><time>2015-02-11T11:46:53Z</time></trkpt><trkpt lat="51.8037202209" lon="-2.1926967334"><ele>237.58</ele><time>2015-02-11T11:47:07Z</time></trkpt><trkpt lat="51.8037837557" lon="-2.1925835777"><ele>236.14</ele><time>2015-02-11T11:47:19Z</time></trkpt><trkpt lat="51.8038124219" lon="-2.1925160196"><ele>236.14</ele><time>2015-02-11T11:47:26Z</time></trkpt><trkpt lat="51.8038487993" lon="-2.1923358086"><ele>234.70</ele><time>2015-02-11T11:47:38Z</time></trkpt><trkpt lat="51.8038520683" lon="-2.1921534184"><ele>233.26</ele><time>2015-02-11T11:47:50Z</time></trkpt><trkpt lat="51.8038590252" lon="-2.1921098325"><ele>233.26</ele><time>2015-02-11T11:48:13Z</time></trkpt><trkpt lat="51.8039572611" lon="-2.1919559408"><ele>231.33</ele><time>2015-02-11T11:48:25Z</time></trkpt><trkpt lat="51.8039810658" lon="-2.1918915678"><ele>231.33</ele><time>2015-02-11T11:48:28Z</time></trkpt><trkpt lat="51.8039840832" lon="-2.1918426175"><ele>230.85</ele><time>2015-02-11T11:48:30Z</time></trkpt><trkpt lat="51.8040228914" lon="-2.1915862150"><ele>229.41</ele><time>2015-02-11T11:48:44Z</time></trkpt><trkpt lat="51.8040629569" lon="-2.1913807746"><ele>227.97</ele><time>2015-02-11T11:48:57Z</time></trkpt><trkpt lat="51.8041384779" lon="-2.1913211793"><ele>227.49</ele><time>2015-02-11T11:49:08Z</time></trkpt><trkpt lat="51.8041233066" lon="-2.1911832131"><ele>227.49</ele><time>2015-02-11T11:49:25Z</time></trkpt><trkpt lat="51.8042182736" lon="-2.1909736656"><ele>226.05</ele><time>2015-02-11T11:49:42Z</time></trkpt><trkpt lat="51.8043817207" lon="-2.1908002440"><ele>223.64</ele><time>2015-02-11T11:49:58Z</time></trkpt><trkpt lat="51.8045147415" lon="-2.1905954741"><ele>221.72</ele><time>2015-02-11T11:50:11Z</time></trkpt><trkpt lat="51.8045671284" lon="-2.1903737728"><ele>220.76</ele><time>2015-02-11T11:50:24Z</time></trkpt><trkpt lat="51.8045651168" lon="-2.1900745388"><ele>218.84</ele><time>2015-02-11T11:50:40Z</time></trkpt><trkpt lat="51.8045200221" lon="-2.1899150312"><ele>216.91</ele><time>2015-02-11T11:50:56Z</time></trkpt><trkpt lat="51.8044526316" lon="-2.1898618061"><ele>216.43</ele><time>2015-02-11T11:51:07Z</time></trkpt><trkpt lat="51.8044000771" lon="-2.1897850279"><ele>215.47</ele><time>2015-02-11T11:51:22Z</time></trkpt><trkpt lat="51.8043959700" lon="-2.1897726227"><ele>215.95</ele><time>2015-02-11T11:51:44Z</time></trkpt><trkpt lat="51.8043957185" lon="-2.1897846088"><ele>216.43</ele><time>2015-02-11T11:52:10Z</time></trkpt><trkpt lat="51.8043820560" lon="-2.1898063179"><ele>214.99</ele><time>2015-02-11T11:52:21Z</time></trkpt><trkpt lat="51.8043587543" lon="-2.1898397617"><ele>214.99</ele><time>2015-02-11T11:52:23Z</time></trkpt><trkpt lat="51.8042616080" lon="-2.1899500675"><ele>214.99</ele><time>2015-02-11T11:52:32Z</time></trkpt><trkpt lat="51.8042228837" lon="-2.1899939049"><ele>214.03</ele><time>2015-02-11T11:52:37Z</time></trkpt><trkpt lat="51.8041935470" lon="-2.1900354791"><ele>214.03</ele><time>2015-02-11T11:52:41Z</time></trkpt><trkpt lat="51.8040881027" lon="-2.1901557595"><ele>214.03</ele><time>2015-02-11T11:52:56Z</time></trkpt><trkpt lat="51.8039375637" lon="-2.1902849246"><ele>214.03</ele><time>2015-02-11T11:53:12Z</time></trkpt><trkpt lat="51.8038886972" lon="-2.1903399099"><ele>213.55</ele><time>2015-02-11T11:53:27Z</time></trkpt><trkpt lat="51.8038357235" lon="-2.1903810650"><ele>213.55</ele><time>2015-02-11T11:53:31Z</time></trkpt><trkpt lat="51.8038089015" lon="-2.1904133353"><ele>212.59</ele><time>2015-02-11T11:53:43Z</time></trkpt><trkpt lat="51.8036962487" lon="-2.1905134991"><ele>212.59</ele><time>2015-02-11T11:53:57Z</time></trkpt><trkpt lat="51.8035302870" lon="-2.1906497888"><ele>212.11</ele><time>2015-02-11T11:54:10Z</time></trkpt><trkpt lat="51.8034303747" lon="-2.1907804627"><ele>211.15</ele><time>2015-02-11T11:54:23Z</time></trkpt><trkpt lat="51.8033564463" lon="-2.1909579914"><ele>210.67</ele><time>2015-02-11T11:54:38Z</time></trkpt><trkpt lat="51.8032976054" lon="-2.1910904255"><ele>209.70</ele><time>2015-02-11T11:54:51Z</time></trkpt><trkpt lat="51.8032053206" lon="-2.1912667807"><ele>208.26</ele><time>2015-02-11T11:55:04Z</time></trkpt><trkpt lat="51.8031479046" lon="-2.1913815290"><ele>208.26</ele><time>2015-02-11T11:55:15Z</time></trkpt><trkpt lat="51.8030649237" lon="-2.1914995462"><ele>208.26</ele><time>2015-02-11T11:55:28Z</time></trkpt><trkpt lat="51.8030437175" lon="-2.1915334929"><ele>208.26</ele><time>2015-02-11T11:55:31Z</time></trkpt><trkpt lat="51.8029936776" lon="-2.1915832814"><ele>207.78</ele><time>2015-02-11T11:55:37Z</time></trkpt><trkpt lat="51.8029434700" lon="-2.1916064993"><ele>207.78</ele><time>2015-02-11T11:55:42Z</time></trkpt><trkpt lat="51.8029184919" lon="-2.1916144621"><ele>208.26</ele><time>2015-02-11T11:55:44Z</time></trkpt><trkpt lat="51.8028132990" lon="-2.1916929167"><ele>208.26</ele><time>2015-02-11T11:55:55Z</time></trkpt><trkpt lat="51.8026843015" lon="-2.1917316411"><ele>207.78</ele><time>2015-02-11T11:56:08Z</time></trkpt><trkpt lat="51.8026750814" lon="-2.1917322278"><ele>207.30</ele><time>2015-02-11T11:56:09Z</time></trkpt><trkpt lat="51.8026193418" lon="-2.1917201579"><ele>206.82</ele><time>2015-02-11T11:56:15Z</time></trkpt><trkpt lat="51.8024911825" lon="-2.1917192359"><ele>205.38</ele><time>2015-02-11T11:56:28Z</time></trkpt><trkpt lat="51.8023496959" lon="-2.1916834451"><ele>203.94</ele><time>2015-02-11T11:56:43Z</time></trkpt><trkpt lat="51.8022432458" lon="-2.1916409489"><ele>202.01</ele><time>2015-02-11T11:56:56Z</time></trkpt><trkpt lat="51.8020963948" lon="-2.1915899031"><ele>200.09</ele><time>2015-02-11T11:57:14Z</time></trkpt><trkpt lat="51.8019718397" lon="-2.1915435512"><ele>197.69</ele><time>2015-02-11T11:57:28Z</time></trkpt><trkpt lat="51.8018605281" lon="-2.1914404538"><ele>195.77</ele><time>2015-02-11T11:57:42Z</time></trkpt><trkpt lat="51.8017687462" lon="-2.1913366020"><ele>193.84</ele><time>2015-02-11T11:57:55Z</time></trkpt><trkpt lat="51.8016856816" lon="-2.1911984682"><ele>192.40</ele><time>2015-02-11T11:58:11Z</time></trkpt><trkpt lat="51.8016326241" lon="-2.1911108773"><ele>190.96</ele><time>2015-02-11T11:58:19Z</time></trkpt><trkpt lat="51.8015610427" lon="-2.1909859031"><ele>189.04</ele><time>2015-02-11T11:58:33Z</time></trkpt><trkpt lat="51.8014903832" lon="-2.1908962168"><ele>187.59</ele><time>2015-02-11T11:58:46Z</time></trkpt><trkpt lat="51.8014768884" lon="-2.1908739209"><ele>187.11</ele><time>2015-02-11T11:58:48Z</time></trkpt><trkpt lat="51.8013450410" lon="-2.1907357033"><ele>185.67</ele><time>2015-02-11T11:59:02Z</time></trkpt><trkpt lat="51.8012418598" lon="-2.1907010023"><ele>184.71</ele><time>2015-02-11T11:59:17Z</time></trkpt><trkpt lat="51.8012229167" lon="-2.1907010861"><ele>184.71</ele><time>2015-02-11T11:59:19Z</time></trkpt><trkpt lat="51.8011062406" lon="-2.1906803828"><ele>183.75</ele><time>2015-02-11T11:59:33Z</time></trkpt><trkpt lat="51.8009935040" lon="-2.1906709950"><ele>182.31</ele><time>2015-02-11T11:59:46Z</time></trkpt><trkpt lat="51.8008869700" lon="-2.1906606015"><ele>181.83</ele><time>2015-02-11T11:59:58Z</time></trkpt><trkpt lat="51.8008511793" lon="-2.1906624455"><ele>181.35</ele><time>2015-02-11T12:00:02Z</time></trkpt><trkpt lat="51.8008039892" lon="-2.1906600147"><ele>180.87</ele><time>2015-02-11T12:00:15Z</time></trkpt><trkpt lat="51.8007999659" lon="-2.1906658821"><ele>180.87</ele><time>2015-02-11T12:00:34Z</time></trkpt><trkpt lat="51.8007730599" lon="-2.1906884294"><ele>179.90</ele><time>2015-02-11T12:00:48Z</time></trkpt><trkpt lat="51.8007702939" lon="-2.1906878427"><ele>179.90</ele><time>2015-02-11T12:00:51Z</time></trkpt><trkpt lat="51.8006587308" lon="-2.1907682251"><ele>178.94</ele><time>2015-02-11T12:01:05Z</time></trkpt><trkpt lat="51.8006515224" lon="-2.1907755174"><ele>178.94</ele><time>2015-02-11T12:01:06Z</time></trkpt><trkpt lat="51.8006135523" lon="-2.1907942928"><ele>179.42</ele><time>2015-02-11T12:01:10Z</time></trkpt><trkpt lat="51.8005640153" lon="-2.1908185165"><ele>178.46</ele><time>2015-02-11T12:01:16Z</time></trkpt><trkpt lat="51.8004049268" lon="-2.1908481047"><ele>178.46</ele><time>2015-02-11T12:01:29Z</time></trkpt><trkpt lat="51.8003564794" lon="-2.1908624377"><ele>178.46</ele><time>2015-02-11T12:01:34Z</time></trkpt><trkpt lat="51.8002856523" lon="-2.1908004954"><ele>178.46</ele><time>2015-02-11T12:01:47Z</time></trkpt><trkpt lat="51.8002786953" lon="-2.1907999925"><ele>178.46</ele><time>2015-02-11T12:01:49Z</time></trkpt><trkpt lat="51.8002172559" lon="-2.1907988191"><ele>177.98</ele><time>2015-02-11T12:01:55Z</time></trkpt><trkpt lat="51.8001622707" lon="-2.1907428280"><ele>177.98</ele><time>2015-02-11T12:02:06Z</time></trkpt><trkpt lat="51.8001174275" lon="-2.1907124855"><ele>178.46</ele><time>2015-02-11T12:02:21Z</time></trkpt><trkpt lat="51.8001112249" lon="-2.1907084621"><ele>178.46</ele><time>2015-02-11T12:02:46Z</time></trkpt><trkpt lat="51.8001092970" lon="-2.1907108929"><ele>178.94</ele><time>2015-02-11T12:02:59Z</time></trkpt><trkpt lat="51.8001078721" lon="-2.1907187719"><ele>178.94</ele><time>2015-02-11T12:03:24Z</time></trkpt><trkpt lat="51.8000963889" lon="-2.1907079592"><ele>178.94</ele><time>2015-02-11T12:03:45Z</time></trkpt><trkpt lat="51.8000954669" lon="-2.1907034330"><ele>178.46</ele><time>2015-02-11T12:03:51Z</time></trkpt><trkpt lat="51.8000801280" lon="-2.1906797122"><ele>178.94</ele><time>2015-02-11T12:03:54Z</time></trkpt><trkpt lat="51.7999730911" lon="-2.1905446798"><ele>179.42</ele><time>2015-02-11T12:04:07Z</time></trkpt><trkpt lat="51.7999634519" lon="-2.1905370522"><ele>179.42</ele><time>2015-02-11T12:04:26Z</time></trkpt><trkpt lat="51.7999418266" lon="-2.1904951427"><ele>179.42</ele><time>2015-02-11T12:04:39Z</time></trkpt><trkpt lat="51.7999279127" lon="-2.1904703323"><ele>179.42</ele><time>2015-02-11T12:04:45Z</time></trkpt><trkpt lat="51.7998963967" lon="-2.1904402412"><ele>179.42</ele><time>2015-02-11T12:05:00Z</time></trkpt><trkpt lat="51.7998916190" lon="-2.1904339548"><ele>180.38</ele><time>2015-02-11T12:05:17Z</time></trkpt><trkpt lat="51.7998932954" lon="-2.1904447675"><ele>180.87</ele><time>2015-02-11T12:05:40Z</time></trkpt><trkpt lat="51.7998952232" lon="-2.1904368885"><ele>179.90</ele><time>2015-02-11T12:05:42Z</time></trkpt><trkpt lat="51.7998803873" lon="-2.1903897822"><ele>179.42</ele><time>2015-02-11T12:05:59Z</time></trkpt><trkpt lat="51.7998576723" lon="-2.1903587691"><ele>179.42</ele><time>2015-02-11T12:06:21Z</time></trkpt><trkpt lat="51.7998371366" lon="-2.1902930550"><ele>179.90</ele><time>2015-02-11T12:06:38Z</time></trkpt><trkpt lat="51.7997585144" lon="-2.1902078949"><ele>179.90</ele><time>2015-02-11T12:06:44Z</time></trkpt><trkpt lat="51.7996436823" lon="-2.1899651550"><ele>180.87</ele><time>2015-02-11T12:06:59Z</time></trkpt><trkpt lat="51.7995854281" lon="-2.1898542624"><ele>181.83</ele><time>2015-02-11T12:07:12Z</time></trkpt><trkpt lat="51.7995689157" lon="-2.1898531727"><ele>181.35</ele><time>2015-02-11T12:07:16Z</time></trkpt><trkpt lat="51.7994600348" lon="-2.1897899732"><ele>182.79</ele><time>2015-02-11T12:07:29Z</time></trkpt><trkpt lat="51.7993649840" lon="-2.1897239238"><ele>182.79</ele><time>2015-02-11T12:07:42Z</time></trkpt><trkpt lat="51.7992972583" lon="-2.1896593831"><ele>183.75</ele><time>2015-02-11T12:07:54Z</time></trkpt><trkpt lat="51.7991934065" lon="-2.1895841975"><ele>184.71</ele><time>2015-02-11T12:08:09Z</time></trkpt><trkpt lat="51.7991073243" lon="-2.1895623207"><ele>184.71</ele><time>2015-02-11T12:08:27Z</time></trkpt><trkpt lat="51.7990215775" lon="-2.1895494964"><ele>186.15</ele><time>2015-02-11T12:08:43Z</time></trkpt><trkpt lat="51.7989665084" lon="-2.1895222552"><ele>186.63</ele><time>2015-02-11T12:08:49Z</time></trkpt><trkpt lat="51.7989223357" lon="-2.1894401964"><ele>187.11</ele><time>2015-02-11T12:09:02Z</time></trkpt><trkpt lat="51.7988940887" lon="-2.1894050762"><ele>187.59</ele><time>2015-02-11T12:09:18Z</time></trkpt><trkpt lat="51.7988404445" lon="-2.1893866360"><ele>187.11</ele><time>2015-02-11T12:09:24Z</time></trkpt><trkpt lat="51.7987534404" lon="-2.1893490851"><ele>188.08</ele><time>2015-02-11T12:09:35Z</time></trkpt><trkpt lat="51.7986742314" lon="-2.1893132944"><ele>188.56</ele><time>2015-02-11T12:09:48Z</time></trkpt><trkpt lat="51.7985498440" lon="-2.1892473288"><ele>189.04</ele><time>2015-02-11T12:10:01Z</time></trkpt><trkpt lat="51.7985180765" lon="-2.1892309841"><ele>189.04</ele><time>2015-02-11T12:10:04Z</time></trkpt><trkpt lat="51.7984085251" lon="-2.1891671140"><ele>190.48</ele><time>2015-02-11T12:10:17Z</time></trkpt><trkpt lat="51.7983055953" lon="-2.1890866477"><ele>190.96</ele><time>2015-02-11T12:10:29Z</time></trkpt><trkpt lat="51.7982413899" lon="-2.1890128870"><ele>190.96</ele><time>2015-02-11T12:10:41Z</time></trkpt><trkpt lat="51.7982311640" lon="-2.1890034154"><ele>190.96</ele><time>2015-02-11T12:10:53Z</time></trkpt><trkpt lat="51.7981478479" lon="-2.1889475919"><ele>191.44</ele><time>2015-02-11T12:11:00Z</time></trkpt><trkpt lat="51.7981056869" lon="-2.1889273915"><ele>191.44</ele><time>2015-02-11T12:11:03Z</time></trkpt><trkpt lat="51.7980224546" lon="-2.1888614260"><ele>192.88</ele><time>2015-02-11T12:11:13Z</time></trkpt><trkpt lat="51.7979259789" lon="-2.1887916047"><ele>193.36</ele><time>2015-02-11T12:11:26Z</time></trkpt><trkpt lat="51.7978273239" lon="-2.1887362842"><ele>194.80</ele><time>2015-02-11T12:11:38Z</time></trkpt><trkpt lat="51.7977569159" lon="-2.1887158323"><ele>195.77</ele><time>2015-02-11T12:11:48Z</time></trkpt><trkpt lat="51.7976489570" lon="-2.1887680516"><ele>196.25</ele><time>2015-02-11T12:12:00Z</time></trkpt><trkpt lat="51.7975121643" lon="-2.1888436563"><ele>197.21</ele><time>2015-02-11T12:12:15Z</time></trkpt><trkpt lat="51.7974529043" lon="-2.1888739150"><ele>197.69</ele><time>2015-02-11T12:12:20Z</time></trkpt><trkpt lat="51.7973507289" lon="-2.1889355220"><ele>198.65</ele><time>2015-02-11T12:12:32Z</time></trkpt><trkpt lat="51.7972323764" lon="-2.1890779305"><ele>198.65</ele><time>2015-02-11T12:12:48Z</time></trkpt><trkpt lat="51.7971399240" lon="-2.1891772561"><ele>200.09</ele><time>2015-02-11T12:12:59Z</time></trkpt><trkpt lat="51.7971089110" lon="-2.1892300621"><ele>200.57</ele><time>2015-02-11T12:13:15Z</time></trkpt><trkpt lat="51.7970974278" lon="-2.1892439760"><ele>199.61</ele><time>2015-02-11T12:13:17Z</time></trkpt><trkpt lat="51.7970641516" lon="-2.1892886516"><ele>200.09</ele><time>2015-02-11T12:13:21Z</time></trkpt><trkpt lat="51.7969182227" lon="-2.1894650906"><ele>201.53</ele><time>2015-02-11T12:13:36Z</time></trkpt><trkpt lat="51.7967881355" lon="-2.1896319743"><ele>202.01</ele><time>2015-02-11T12:13:51Z</time></trkpt><trkpt lat="51.7966733873" lon="-2.1898008697"><ele>202.01</ele><time>2015-02-11T12:14:04Z</time></trkpt><trkpt lat="51.7965677753" lon="-2.1899616346"><ele>201.53</ele><time>2015-02-11T12:14:17Z</time></trkpt><trkpt lat="51.7964582238" lon="-2.1900935657"><ele>202.49</ele><time>2015-02-11T12:14:29Z</time></trkpt><trkpt lat="51.7963102832" lon="-2.1902993415"><ele>202.49</ele><time>2015-02-11T12:14:45Z</time></trkpt><trkpt lat="51.7961705569" lon="-2.1904518083"><ele>202.98</ele><time>2015-02-11T12:15:00Z</time></trkpt><trkpt lat="51.7960641906" lon="-2.1905675624"><ele>203.46</ele><time>2015-02-11T12:15:12Z</time></trkpt><trkpt lat="51.7959412280" lon="-2.1907007508"><ele>203.46</ele><time>2015-02-11T12:15:25Z</time></trkpt><trkpt lat="51.7957694829" lon="-2.1906955540"><ele>202.98</ele><time>2015-02-11T12:15:38Z</time></trkpt><trkpt lat="51.7956031021" lon="-2.1907059476"><ele>202.49</ele><time>2015-02-11T12:15:51Z</time></trkpt><trkpt lat="51.7955343705" lon="-2.1907282434"><ele>202.98</ele><time>2015-02-11T12:15:58Z</time></trkpt><trkpt lat="51.7955040280" lon="-2.1907574963"><ele>202.01</ele><time>2015-02-11T12:16:02Z</time></trkpt><trkpt lat="51.7954293452" lon="-2.1907420736"><ele>202.01</ele><time>2015-02-11T12:16:16Z</time></trkpt><trkpt lat="51.7954369728" lon="-2.1907578316"><ele>202.49</ele><time>2015-02-11T12:16:30Z</time></trkpt><trkpt lat="51.7954285070" lon="-2.1908004954"><ele>202.98</ele><time>2015-02-11T12:16:33Z</time></trkpt><trkpt lat="51.7953463644" lon="-2.1910163295"><ele>203.46</ele><time>2015-02-11T12:16:46Z</time></trkpt><trkpt lat="51.7952933069" lon="-2.1912676189"><ele>203.94</ele><time>2015-02-11T12:16:58Z</time></trkpt><trkpt lat="51.7952743638" lon="-2.1913610771"><ele>203.94</ele><time>2015-02-11T12:17:02Z</time></trkpt><trkpt lat="51.7952578515" lon="-2.1914454829"><ele>203.94</ele><time>2015-02-11T12:17:06Z</time></trkpt><trkpt lat="51.7952218093" lon="-2.1915806830"><ele>203.94</ele><time>2015-02-11T12:17:12Z</time></trkpt><trkpt lat="51.7951056361" lon="-2.1917867102"><ele>205.38</ele><time>2015-02-11T12:17:26Z</time></trkpt><trkpt lat="51.7949188873" lon="-2.1919372492"><ele>204.90</ele><time>2015-02-11T12:17:42Z</time></trkpt><trkpt lat="51.7947511654" lon="-2.1920578647"><ele>204.42</ele><time>2015-02-11T12:17:58Z</time></trkpt><trkpt lat="51.7946308013" lon="-2.1921372414"><ele>203.94</ele><time>2015-02-11T12:18:10Z</time></trkpt><trkpt lat="51.7944715451" lon="-2.1922385786"><ele>203.94</ele><time>2015-02-11T12:18:25Z</time></trkpt><trkpt lat="51.7943843734" lon="-2.1922740340"><ele>203.94</ele><time>2015-02-11T12:18:37Z</time></trkpt><trkpt lat="51.7942207586" lon="-2.1923913807"><ele>203.46</ele><time>2015-02-11T12:18:53Z</time></trkpt><trkpt lat="51.7941194214" lon="-2.1924368106"><ele>202.01</ele><time>2015-02-11T12:19:04Z</time></trkpt><trkpt lat="51.7939988896" lon="-2.1925023571"><ele>201.53</ele><time>2015-02-11T12:19:17Z</time></trkpt><trkpt lat="51.7938486021" lon="-2.1925217193"><ele>200.09</ele><time>2015-02-11T12:19:30Z</time></trkpt><trkpt lat="51.7938092910" lon="-2.1925234795"><ele>200.57</ele><time>2015-02-11T12:19:34Z</time></trkpt><trkpt lat="51.7937885039" lon="-2.1925165225"><ele>200.09</ele><time>2015-02-11T12:19:36Z</time></trkpt><trkpt lat="51.7937403079" lon="-2.1925290115"><ele>200.09</ele><time>2015-02-11T12:19:40Z</time></trkpt><trkpt lat="51.7936393060" lon="-2.1925935522"><ele>200.09</ele><time>2015-02-11T12:19:54Z</time></trkpt><trkpt lat="51.7936362047" lon="-2.1925946418"><ele>199.13</ele><time>2015-02-11T12:20:05Z</time></trkpt><trkpt lat="51.7936046887" lon="-2.1925966535"><ele>198.65</ele><time>2015-02-11T12:20:09Z</time></trkpt><trkpt lat="51.7935283296" lon="-2.1926131658"><ele>198.65</ele><time>2015-02-11T12:20:16Z</time></trkpt><trkpt lat="51.7933632899" lon="-2.1926078014"><ele>198.17</ele><time>2015-02-11T12:20:29Z</time></trkpt><trkpt lat="51.7933238111" lon="-2.1926617809"><ele>198.17</ele><time>2015-02-11T12:20:34Z</time></trkpt><trkpt lat="51.7932984140" lon="-2.1926816460"><ele>198.17</ele><time>2015-02-11T12:20:37Z</time></trkpt><trkpt lat="51.7932335380" lon="-2.1926545724"><ele>197.21</ele><time>2015-02-11T12:20:44Z</time></trkpt><trkpt lat="51.7930692527" lon="-2.1927505452"><ele>197.69</ele><time>2015-02-11T12:21:01Z</time></trkpt><trkpt lat="51.7929151934" lon="-2.1928768605"><ele>195.77</ele><time>2015-02-11T12:21:16Z</time></trkpt><trkpt lat="51.7928755470" lon="-2.1929381322"><ele>195.28</ele><time>2015-02-11T12:21:24Z</time></trkpt><trkpt lat="51.7927624751" lon="-2.1931029204"><ele>194.32</ele><time>2015-02-11T12:21:36Z</time></trkpt><trkpt lat="51.7926843558" lon="-2.1932485141"><ele>192.88</ele><time>2015-02-11T12:21:47Z</time></trkpt><trkpt lat="51.7926218268" lon="-2.1934236959"><ele>191.92</ele><time>2015-02-11T12:21:57Z</time></trkpt><trkpt lat="51.7925957590" lon="-2.1936664358"><ele>190.48</ele><time>2015-02-11T12:22:10Z</time></trkpt><trkpt lat="51.7925871257" lon="-2.1936971135"><ele>190.96</ele><time>2015-02-11T12:22:12Z</time></trkpt><trkpt lat="51.7925744690" lon="-2.1937832795"><ele>190.00</ele><time>2015-02-11T12:22:18Z</time></trkpt><trkpt lat="51.7925690208" lon="-2.1938898973"><ele>189.04</ele><time>2015-02-11T12:22:31Z</time></trkpt><trkpt lat="51.7925694399" lon="-2.1939075831"><ele>189.52</ele><time>2015-02-11T12:22:32Z</time></trkpt><trkpt lat="51.7925649136" lon="-2.1940074116"><ele>188.08</ele><time>2015-02-11T12:22:37Z</time></trkpt><trkpt lat="51.7925416119" lon="-2.1940863691"><ele>188.08</ele><time>2015-02-11T12:22:42Z</time></trkpt><trkpt lat="51.7925007921" lon="-2.1942364052"><ele>188.08</ele><time>2015-02-11T12:22:50Z</time></trkpt><trkpt lat="51.7924606428" lon="-2.1944011096"><ele>186.63</ele><time>2015-02-11T12:23:00Z</time></trkpt><trkpt lat="51.7924463935" lon="-2.1945025306"><ele>186.15</ele><time>2015-02-11T12:23:07Z</time></trkpt><trkpt lat="51.7924316414" lon="-2.1946016885"><ele>185.19</ele><time>2015-02-11T12:23:14Z</time></trkpt><trkpt lat="51.7924156319" lon="-2.1946769580"><ele>184.71</ele><time>2015-02-11T12:23:17Z</time></trkpt><trkpt lat="51.7924017180" lon="-2.1947530657"><ele>183.75</ele><time>2015-02-11T12:23:21Z</time></trkpt><trkpt lat="51.7923549470" lon="-2.1948947199"><ele>183.27</ele><time>2015-02-11T12:23:33Z</time></trkpt><trkpt lat="51.7923176475" lon="-2.1949031018"><ele>183.27</ele><time>2015-02-11T12:23:37Z</time></trkpt><trkpt lat="51.7921460699" lon="-2.1949570812"><ele>182.79</ele><time>2015-02-11T12:23:52Z</time></trkpt><trkpt lat="51.7919920944" lon="-2.1949870884"><ele>181.35</ele><time>2015-02-11T12:24:07Z</time></trkpt><trkpt lat="51.7919487599" lon="-2.1949585062"><ele>181.35</ele><time>2015-02-11T12:24:19Z</time></trkpt><trkpt lat="51.7918958701" lon="-2.1949947998"><ele>180.87</ele><time>2015-02-11T12:24:32Z</time></trkpt><trkpt lat="51.7918205168" lon="-2.1950125694"><ele>180.87</ele><time>2015-02-11T12:24:39Z</time></trkpt><trkpt lat="51.7917989753" lon="-2.1950142458"><ele>180.38</ele><time>2015-02-11T12:24:41Z</time></trkpt><trkpt lat="51.7917793617" lon="-2.1950255614"><ele>180.38</ele><time>2015-02-11T12:24:43Z</time></trkpt><trkpt lat="51.7916942853" lon="-2.1950308420"><ele>179.90</ele><time>2015-02-11T12:24:51Z</time></trkpt><trkpt lat="51.7916405573" lon="-2.1950342786"><ele>179.42</ele><time>2015-02-11T12:24:56Z</time></trkpt><trkpt lat="51.7916078679" lon="-2.1950447559"><ele>179.90</ele><time>2015-02-11T12:24:59Z</time></trkpt><trkpt lat="51.7915584985" lon="-2.1950464323"><ele>179.42</ele><time>2015-02-11T12:25:15Z</time></trkpt><trkpt lat="51.7914701533" lon="-2.1950271539"><ele>177.98</ele><time>2015-02-11T12:25:30Z</time></trkpt><trkpt lat="51.7914438341" lon="-2.1950255614"><ele>177.98</ele><time>2015-02-11T12:25:32Z</time></trkpt><trkpt lat="51.7913528904" lon="-2.1950301714"><ele>177.02</ele><time>2015-02-11T12:25:40Z</time></trkpt><trkpt lat="51.7911972385" lon="-2.1950116474"><ele>176.54</ele><time>2015-02-11T12:25:52Z</time></trkpt><trkpt lat="51.7911498807" lon="-2.1950045228"><ele>176.06</ele><time>2015-02-11T12:25:55Z</time></trkpt><trkpt lat="51.7909826618" lon="-2.1950008348"><ele>175.10</ele><time>2015-02-11T12:26:09Z</time></trkpt><trkpt lat="51.7909345496" lon="-2.1949967276"><ele>174.62</ele><time>2015-02-11T12:26:14Z</time></trkpt><trkpt lat="51.7909048777" lon="-2.1949936263"><ele>174.62</ele><time>2015-02-11T12:26:17Z</time></trkpt><trkpt lat="51.7908604536" lon="-2.1949864179"><ele>174.14</ele><time>2015-02-11T12:26:21Z</time></trkpt><trkpt lat="51.7907381617" lon="-2.1949861664"><ele>173.66</ele><time>2015-02-11T12:26:33Z</time></trkpt><trkpt lat="51.7907281034" lon="-2.1949851606"><ele>173.66</ele><time>2015-02-11T12:26:34Z</time></trkpt><trkpt lat="51.7905659974" lon="-2.1949870046"><ele>172.69</ele><time>2015-02-11T12:26:49Z</time></trkpt><trkpt lat="51.7904349882" lon="-2.1949559078"><ele>172.69</ele><time>2015-02-11T12:27:02Z</time></trkpt><trkpt lat="51.7903629877" lon="-2.1949165128"><ele>172.21</ele><time>2015-02-11T12:27:13Z</time></trkpt><trkpt lat="51.7903309688" lon="-2.1949014254"><ele>172.21</ele><time>2015-02-11T12:27:17Z</time></trkpt><trkpt lat="51.7903061584" lon="-2.1948984917"><ele>171.73</ele><time>2015-02-11T12:27:19Z</time></trkpt><trkpt lat="51.7902575433" lon="-2.1948834043"><ele>171.73</ele><time>2015-02-11T12:27:23Z</time></trkpt><trkpt lat="51.7902175616" lon="-2.1948669758"><ele>171.73</ele><time>2015-02-11T12:27:27Z</time></trkpt><trkpt lat="51.7901513446" lon="-2.1948886011"><ele>171.25</ele><time>2015-02-11T12:27:34Z</time></trkpt><trkpt lat="51.7901195772" lon="-2.1949124057"><ele>171.25</ele><time>2015-02-11T12:27:37Z</time></trkpt><trkpt lat="51.7899918370" lon="-2.1948529780"><ele>170.77</ele><time>2015-02-11T12:27:49Z</time></trkpt><trkpt lat="51.7899070960" lon="-2.1947983280"><ele>170.29</ele><time>2015-02-11T12:28:05Z</time></trkpt><trkpt lat="51.7898652703" lon="-2.1947565861"><ele>170.29</ele><time>2015-02-11T12:28:13Z</time></trkpt><trkpt lat="51.7898452375" lon="-2.1947549935"><ele>169.81</ele><time>2015-02-11T12:28:15Z</time></trkpt><trkpt lat="51.7897439841" lon="-2.1947886050"><ele>169.81</ele><time>2015-02-11T12:28:26Z</time></trkpt><trkpt lat="51.7896297388" lon="-2.1947694104"><ele>169.33</ele><time>2015-02-11T12:28:36Z</time></trkpt><trkpt lat="51.7896001507" lon="-2.1947743557"><ele>168.85</ele><time>2015-02-11T12:28:39Z</time></trkpt><trkpt lat="51.7894351110" lon="-2.1948202047"><ele>167.41</ele><time>2015-02-11T12:28:54Z</time></trkpt><trkpt lat="51.7893860769" lon="-2.1948350407"><ele>166.93</ele><time>2015-02-11T12:28:58Z</time></trkpt><trkpt lat="51.7893408984" lon="-2.1948328614"><ele>166.93</ele><time>2015-02-11T12:29:02Z</time></trkpt><trkpt lat="51.7893134058" lon="-2.1948524751"><ele>166.45</ele><time>2015-02-11T12:29:05Z</time></trkpt><trkpt lat="51.7892381363" lon="-2.1948715858"><ele>165.96</ele><time>2015-02-11T12:29:12Z</time></trkpt><trkpt lat="51.7890970688" lon="-2.1948504634"><ele>164.52</ele><time>2015-02-11T12:29:26Z</time></trkpt><trkpt lat="51.7890884355" lon="-2.1948495414"><ele>165.00</ele><time>2015-02-11T12:29:27Z</time></trkpt><trkpt lat="51.7890348751" lon="-2.1948012616"><ele>164.52</ele><time>2015-02-11T12:29:32Z</time></trkpt><trkpt lat="51.7889886070" lon="-2.1947305184"><ele>163.56</ele><time>2015-02-11T12:29:38Z</time></trkpt><trkpt lat="51.7889152654" lon="-2.1946941409"><ele>163.08</ele><time>2015-02-11T12:29:46Z</time></trkpt><trkpt lat="51.7887764610" lon="-2.1945676580"><ele>161.64</ele><time>2015-02-11T12:29:58Z</time></trkpt><trkpt lat="51.7887657322" lon="-2.1945619583"><ele>161.16</ele><time>2015-02-11T12:29:59Z</time></trkpt><trkpt lat="51.7887368146" lon="-2.1945504751"><ele>161.64</ele><time>2015-02-11T12:30:02Z</time></trkpt><trkpt lat="51.7885788158" lon="-2.1944213938"><ele>160.20</ele><time>2015-02-11T12:30:16Z</time></trkpt><trkpt lat="51.7884870339" lon="-2.1944317035"><ele>159.24</ele><time>2015-02-11T12:30:28Z</time></trkpt><trkpt lat="51.7884193920" lon="-2.1943711862"><ele>158.75</ele><time>2015-02-11T12:30:40Z</time></trkpt><trkpt lat="51.7884058971" lon="-2.1943568531"><ele>158.75</ele><time>2015-02-11T12:30:42Z</time></trkpt><trkpt lat="51.7883447092" lon="-2.1943058912"><ele>158.75</ele><time>2015-02-11T12:30:47Z</time></trkpt><trkpt lat="51.7882739659" lon="-2.1942618862"><ele>157.31</ele><time>2015-02-11T12:30:56Z</time></trkpt><trkpt lat="51.7881779093" lon="-2.1941907238"><ele>157.79</ele><time>2015-02-11T12:31:04Z</time></trkpt><trkpt lat="51.7880776618" lon="-2.1941385046"><ele>156.35</ele><time>2015-02-11T12:31:14Z</time></trkpt><trkpt lat="51.7880304717" lon="-2.1941198129"><ele>156.35</ele><time>2015-02-11T12:31:18Z</time></trkpt><trkpt lat="51.7879917473" lon="-2.1940678451"><ele>155.87</ele><time>2015-02-11T12:31:22Z</time></trkpt><trkpt lat="51.7878927570" lon="-2.1940009575"><ele>155.87</ele><time>2015-02-11T12:31:32Z</time></trkpt><trkpt lat="51.7878536135" lon="-2.1939997841"><ele>155.39</ele><time>2015-02-11T12:31:37Z</time></trkpt><trkpt lat="51.7878047470" lon="-2.1939601377"><ele>154.43</ele><time>2015-02-11T12:31:49Z</time></trkpt><trkpt lat="51.7877782602" lon="-2.1939071640"><ele>153.95</ele><time>2015-02-11T12:31:56Z</time></trkpt><trkpt lat="51.7876967043" lon="-2.1938407794"><ele>153.47</ele><time>2015-02-11T12:32:01Z</time></trkpt><trkpt lat="51.7876583152" lon="-2.1938007139"><ele>153.95</ele><time>2015-02-11T12:32:04Z</time></trkpt><trkpt lat="51.7875733227" lon="-2.1937189903"><ele>152.03</ele><time>2015-02-11T12:32:13Z</time></trkpt><trkpt lat="51.7875259649" lon="-2.1936960239"><ele>152.03</ele><time>2015-02-11T12:32:18Z</time></trkpt><trkpt lat="51.7874672916" lon="-2.1936554555"><ele>151.54</ele><time>2015-02-11T12:32:24Z</time></trkpt><trkpt lat="51.7873224523" lon="-2.1935661882"><ele>150.58</ele><time>2015-02-11T12:32:38Z</time></trkpt><trkpt lat="51.7871659622" lon="-2.1934809443"><ele>149.14</ele><time>2015-02-11T12:32:53Z</time></trkpt><trkpt lat="51.7871253099" lon="-2.1934533678"><ele>149.62</ele><time>2015-02-11T12:32:57Z</time></trkpt><trkpt lat="51.7870932911" lon="-2.1934270486"><ele>149.14</ele><time>2015-02-11T12:33:00Z</time></trkpt><trkpt lat="51.7870486155" lon="-2.1934073512"><ele>148.66</ele><time>2015-02-11T12:33:04Z</time></trkpt><trkpt lat="51.7870050296" lon="-2.1933670342"><ele>148.66</ele><time>2015-02-11T12:33:08Z</time></trkpt><trkpt lat="51.7869521398" lon="-2.1933459118"><ele>148.18</ele><time>2015-02-11T12:33:14Z</time></trkpt><trkpt lat="51.7869228870" lon="-2.1934558824"><ele>147.70</ele><time>2015-02-11T12:33:19Z</time></trkpt><trkpt lat="51.7869056202" lon="-2.1934983786"><ele>147.22</ele><time>2015-02-11T12:33:21Z</time></trkpt><trkpt lat="51.7868967354" lon="-2.1935770847"><ele>148.18</ele><time>2015-02-11T12:33:25Z</time></trkpt><trkpt lat="51.7868848331" lon="-2.1936283819"><ele>147.70</ele><time>2015-02-11T12:33:28Z</time></trkpt><trkpt lat="51.7868513893" lon="-2.1937075071"><ele>147.22</ele><time>2015-02-11T12:33:32Z</time></trkpt><trkpt lat="51.7867410835" lon="-2.1939687710"><ele>147.22</ele><time>2015-02-11T12:33:47Z</time></trkpt><trkpt lat="51.7867123336" lon="-2.1940474771"><ele>147.70</ele><time>2015-02-11T12:33:52Z</time></trkpt><trkpt lat="51.7866457812" lon="-2.1941442881"><ele>146.74</ele><time>2015-02-11T12:34:00Z</time></trkpt><trkpt lat="51.7866179533" lon="-2.1941691823"><ele>146.74</ele><time>2015-02-11T12:34:03Z</time></trkpt><trkpt lat="51.7865937296" lon="-2.1942048892"><ele>147.22</ele><time>2015-02-11T12:34:07Z</time></trkpt><trkpt lat="51.7865431868" lon="-2.1942830924"><ele>146.74</ele><time>2015-02-11T12:34:14Z</time></trkpt><trkpt lat="51.7865029536" lon="-2.1943820827"><ele>146.26</ele><time>2015-02-11T12:34:20Z</time></trkpt><trkpt lat="51.7864712700" lon="-2.1944296919"><ele>146.26</ele><time>2015-02-11T12:34:26Z</time></trkpt><trkpt lat="51.7864437774" lon="-2.1944586933"><ele>145.78</ele><time>2015-02-11T12:34:29Z</time></trkpt><trkpt lat="51.7864303663" lon="-2.1944889519"><ele>145.30</ele><time>2015-02-11T12:34:37Z</time></trkpt><trkpt lat="51.7863862775" lon="-2.1945697535"><ele>144.34</ele><time>2015-02-11T12:34:44Z</time></trkpt><trkpt lat="51.7863716930" lon="-2.1945912112"><ele>145.30</ele><time>2015-02-11T12:34:46Z</time></trkpt><trkpt lat="51.7863559350" lon="-2.1946080588"><ele>144.82</ele><time>2015-02-11T12:34:48Z</time></trkpt><trkpt lat="51.7862718645" lon="-2.1947557479"><ele>143.85</ele><time>2015-02-11T12:35:00Z</time></trkpt><trkpt lat="51.7862044740" lon="-2.1948280837"><ele>143.37</ele><time>2015-02-11T12:35:08Z</time></trkpt><trkpt lat="51.7861689348" lon="-2.1948965639"><ele>143.37</ele><time>2015-02-11T12:35:13Z</time></trkpt><trkpt lat="51.7861534283" lon="-2.1949229669"><ele>142.89</ele><time>2015-02-11T12:35:15Z</time></trkpt><trkpt lat="51.7860835232" lon="-2.1950279921"><ele>142.89</ele><time>2015-02-11T12:35:25Z</time></trkpt><trkpt lat="51.7860666756" lon="-2.1950395592"><ele>141.93</ele><time>2015-02-11T12:35:27Z</time></trkpt><trkpt lat="51.7860344052" lon="-2.1950727515"><ele>141.45</ele><time>2015-02-11T12:35:31Z</time></trkpt><trkpt lat="51.7860098463" lon="-2.1951164212"><ele>141.93</ele><time>2015-02-11T12:35:34Z</time></trkpt><trkpt lat="51.7859862093" lon="-2.1951554809"><ele>142.41</ele><time>2015-02-11T12:35:37Z</time></trkpt><trkpt lat="51.7859772407" lon="-2.1952061076"><ele>141.93</ele><time>2015-02-11T12:35:40Z</time></trkpt><trkpt lat="51.7859313916" lon="-2.1952817123"><ele>141.45</ele><time>2015-02-11T12:35:45Z</time></trkpt><trkpt lat="51.7857840378" lon="-2.1954652760"><ele>140.97</ele><time>2015-02-11T12:36:00Z</time></trkpt><trkpt lat="51.7857729737" lon="-2.1954791900"><ele>140.97</ele><time>2015-02-11T12:36:02Z</time></trkpt><trkpt lat="51.7857809365" lon="-2.1956160665"><ele>140.49</ele><time>2015-02-11T12:36:13Z</time></trkpt><trkpt lat="51.7858466506" lon="-2.1957703773"><ele>141.45</ele><time>2015-02-11T12:36:25Z</time></trkpt><trkpt lat="51.7859156337" lon="-2.1959241014"><ele>142.41</ele><time>2015-02-11T12:36:37Z</time></trkpt><trkpt lat="51.7859562859" lon="-2.1960583795"><ele>143.37</ele><time>2015-02-11T12:36:50Z</time></trkpt><trkpt lat="51.7859390192" lon="-2.1961225849"><ele>143.37</ele><time>2015-02-11T12:36:54Z</time></trkpt><trkpt lat="51.7859005462" lon="-2.1962316334"><ele>143.37</ele><time>2015-02-11T12:37:07Z</time></trkpt><trkpt lat="51.7858981155" lon="-2.1962514147"><ele>142.89</ele><time>2015-02-11T12:37:25Z</time></trkpt></trkseg></trk></gpx>